<?xml version="1.0" encoding="UTF-8" standalone="no" ?>
<gpx xmlns="http://www.topografix.com/GPX/1/1" xmlns:xsi="http://www.w3.org/2001/XMLSchema-instance" xsi:schemaLocation="http://www.topografix.com/GPX/1/1 http://www.topografix.com/GPX/1/1/gpx.xsd" version="1.1" creator="VisuGPX - https://www.visugpx.com">
  <metadata>
    <name>Le Touch - Saint Martin du Touch - 15 km </name>
    <desc><![CDATA[Le Touch %u2013 Saint Martin du Touch]]></desc>
  </metadata>
  <trk>
    <name><![CDATA[Le Touch - End]]></name>
    <trkseg>
      <trkpt lat="43.575" lon="1.38043">
        <ele>294.79998779297</ele>
        <time>2014-05-16T10:15:44.000Z</time>
      </trkpt>
      <trkpt lat="43.5751" lon="1.38031">
        <ele>293.60000610352</ele>
        <time>2014-05-16T10:15:48.000Z</time>
      </trkpt>
      <trkpt lat="43.57523" lon="1.38013">
        <ele>292.60000610352</ele>
        <time>2014-05-16T10:15:53.000Z</time>
      </trkpt>
      <trkpt lat="43.57539" lon="1.37999">
        <ele>291.60000610352</ele>
        <time>2014-05-16T10:15:59.000Z</time>
      </trkpt>
      <trkpt lat="43.57542" lon="1.37999">
        <ele>291.39999389648</ele>
        <time>2014-05-16T10:16:00.000Z</time>
      </trkpt>
      <trkpt lat="43.57548" lon="1.3799">
        <ele>290.60000610352</ele>
        <time>2014-05-16T10:16:04.000Z</time>
      </trkpt>
      <trkpt lat="43.57544" lon="1.37979">
        <ele>289.79998779297</ele>
        <time>2014-05-16T10:16:07.000Z</time>
      </trkpt>
      <trkpt lat="43.57552" lon="1.37976">
        <ele>289</ele>
        <time>2014-05-16T10:16:10.000Z</time>
      </trkpt>
      <trkpt lat="43.57556" lon="1.37975">
        <ele>288.79998779297</ele>
        <time>2014-05-16T10:16:11.000Z</time>
      </trkpt>
      <trkpt lat="43.57568" lon="1.37971">
        <ele>287.60000610352</ele>
        <time>2014-05-16T10:16:15.000Z</time>
      </trkpt>
      <trkpt lat="43.57583" lon="1.37962">
        <ele>286.60000610352</ele>
        <time>2014-05-16T10:16:20.000Z</time>
      </trkpt>
      <trkpt lat="43.57596" lon="1.37952">
        <ele>285.39999389648</ele>
        <time>2014-05-16T10:16:25.000Z</time>
      </trkpt>
      <trkpt lat="43.5761" lon="1.3794">
        <ele>284.60000610352</ele>
        <time>2014-05-16T10:16:30.000Z</time>
      </trkpt>
      <trkpt lat="43.57626" lon="1.37929">
        <ele>283.60000610352</ele>
        <time>2014-05-16T10:16:36.000Z</time>
      </trkpt>
      <trkpt lat="43.57642" lon="1.37916">
        <ele>282.79998779297</ele>
        <time>2014-05-16T10:16:42.000Z</time>
      </trkpt>
      <trkpt lat="43.57659" lon="1.37903">
        <ele>282.20001220703</ele>
        <time>2014-05-16T10:16:48.000Z</time>
      </trkpt>
      <trkpt lat="43.57674" lon="1.37892">
        <ele>281.79998779297</ele>
        <time>2014-05-16T10:16:53.000Z</time>
      </trkpt>
      <trkpt lat="43.57691" lon="1.37881">
        <ele>281.60000610352</ele>
        <time>2014-05-16T10:16:58.000Z</time>
      </trkpt>
      <trkpt lat="43.5771" lon="1.37873">
        <ele>281.60000610352</ele>
        <time>2014-05-16T10:17:03.000Z</time>
      </trkpt>
      <trkpt lat="43.5773" lon="1.37868">
        <ele>281.39999389648</ele>
        <time>2014-05-16T10:17:08.000Z</time>
      </trkpt>
      <trkpt lat="43.57733" lon="1.37866">
        <ele>281.39999389648</ele>
        <time>2014-05-16T10:17:09.000Z</time>
      </trkpt>
      <trkpt lat="43.57751" lon="1.37857">
        <ele>281.39999389648</ele>
        <time>2014-05-16T10:17:15.000Z</time>
      </trkpt>
      <trkpt lat="43.57755" lon="1.37855">
        <ele>281.60000610352</ele>
        <time>2014-05-16T10:17:16.000Z</time>
      </trkpt>
      <trkpt lat="43.57772" lon="1.37851">
        <ele>282.39999389648</ele>
        <time>2014-05-16T10:17:21.000Z</time>
      </trkpt>
      <trkpt lat="43.57776" lon="1.37853">
        <ele>282.39999389648</ele>
        <time>2014-05-16T10:17:22.000Z</time>
      </trkpt>
      <trkpt lat="43.57791" lon="1.37852">
        <ele>282.79998779297</ele>
        <time>2014-05-16T10:17:27.000Z</time>
      </trkpt>
      <trkpt lat="43.57803" lon="1.37837">
        <ele>283.39999389648</ele>
        <time>2014-05-16T10:17:32.000Z</time>
      </trkpt>
      <trkpt lat="43.57809" lon="1.37816">
        <ele>284.39999389648</ele>
        <time>2014-05-16T10:17:37.000Z</time>
      </trkpt>
      <trkpt lat="43.57821" lon="1.378">
        <ele>285.20001220703</ele>
        <time>2014-05-16T10:17:42.000Z</time>
      </trkpt>
      <trkpt lat="43.57835" lon="1.37793">
        <ele>286.20001220703</ele>
        <time>2014-05-16T10:17:47.000Z</time>
      </trkpt>
      <trkpt lat="43.57845" lon="1.37783">
        <ele>287</ele>
        <time>2014-05-16T10:17:51.000Z</time>
      </trkpt>
      <trkpt lat="43.57862" lon="1.37771">
        <ele>288</ele>
        <time>2014-05-16T10:17:57.000Z</time>
      </trkpt>
      <trkpt lat="43.57875" lon="1.3776">
        <ele>288.79998779297</ele>
        <time>2014-05-16T10:18:02.000Z</time>
      </trkpt>
      <trkpt lat="43.57892" lon="1.37748">
        <ele>290.20001220703</ele>
        <time>2014-05-16T10:18:08.000Z</time>
      </trkpt>
      <trkpt lat="43.57895" lon="1.37745">
        <ele>290</ele>
        <time>2014-05-16T10:18:09.000Z</time>
      </trkpt>
      <trkpt lat="43.57912" lon="1.37736">
        <ele>290.60000610352</ele>
        <time>2014-05-16T10:18:15.000Z</time>
      </trkpt>
      <trkpt lat="43.57929" lon="1.37721">
        <ele>291.39999389648</ele>
        <time>2014-05-16T10:18:21.000Z</time>
      </trkpt>
      <trkpt lat="43.57942" lon="1.37712">
        <ele>292.20001220703</ele>
        <time>2014-05-16T10:18:26.000Z</time>
      </trkpt>
      <trkpt lat="43.57955" lon="1.37702">
        <ele>292.79998779297</ele>
        <time>2014-05-16T10:18:31.000Z</time>
      </trkpt>
      <trkpt lat="43.57966" lon="1.37696">
        <ele>293.39999389648</ele>
        <time>2014-05-16T10:18:35.000Z</time>
      </trkpt>
      <trkpt lat="43.57984" lon="1.37686">
        <ele>293.60000610352</ele>
        <time>2014-05-16T10:18:42.000Z</time>
      </trkpt>
      <trkpt lat="43.57995" lon="1.37674">
        <ele>293.60000610352</ele>
        <time>2014-05-16T10:18:47.000Z</time>
      </trkpt>
      <trkpt lat="43.58003" lon="1.37663">
        <ele>293.39999389648</ele>
        <time>2014-05-16T10:18:51.000Z</time>
      </trkpt>
      <trkpt lat="43.58013" lon="1.37651">
        <ele>293.39999389648</ele>
        <time>2014-05-16T10:18:56.000Z</time>
      </trkpt>
      <trkpt lat="43.58022" lon="1.37631">
        <ele>293.20001220703</ele>
        <time>2014-05-16T10:19:02.000Z</time>
      </trkpt>
      <trkpt lat="43.58031" lon="1.37609">
        <ele>293.20001220703</ele>
        <time>2014-05-16T10:19:08.000Z</time>
      </trkpt>
      <trkpt lat="43.58037" lon="1.37587">
        <ele>293.20001220703</ele>
        <time>2014-05-16T10:19:14.000Z</time>
      </trkpt>
      <trkpt lat="43.58042" lon="1.37563">
        <ele>293</ele>
        <time>2014-05-16T10:19:20.000Z</time>
      </trkpt>
      <trkpt lat="43.58047" lon="1.3754">
        <ele>292.60000610352</ele>
        <time>2014-05-16T10:19:26.000Z</time>
      </trkpt>
      <trkpt lat="43.58052" lon="1.37522">
        <ele>292.20001220703</ele>
        <time>2014-05-16T10:19:31.000Z</time>
      </trkpt>
      <trkpt lat="43.58061" lon="1.37497">
        <ele>291.20001220703</ele>
        <time>2014-05-16T10:19:38.000Z</time>
      </trkpt>
      <trkpt lat="43.58065" lon="1.3747">
        <ele>290.79998779297</ele>
        <time>2014-05-16T10:19:44.000Z</time>
      </trkpt>
      <trkpt lat="43.58076" lon="1.3746">
        <ele>290.60000610352</ele>
        <time>2014-05-16T10:19:48.000Z</time>
      </trkpt>
      <trkpt lat="43.58089" lon="1.37452">
        <ele>290</ele>
        <time>2014-05-16T10:19:52.000Z</time>
      </trkpt>
      <trkpt lat="43.58098" lon="1.37437">
        <ele>288.79998779297</ele>
        <time>2014-05-16T10:19:57.000Z</time>
      </trkpt>
      <trkpt lat="43.58094" lon="1.37429">
        <ele>287.39999389648</ele>
        <time>2014-05-16T10:20:01.000Z</time>
      </trkpt>
      <trkpt lat="43.58085" lon="1.37422">
        <ele>285.20001220703</ele>
        <time>2014-05-16T10:20:06.000Z</time>
      </trkpt>
      <trkpt lat="43.58081" lon="1.37418">
        <ele>283.60000610352</ele>
        <time>2014-05-16T10:20:09.000Z</time>
      </trkpt>
      <trkpt lat="43.5808" lon="1.37416">
        <ele>283</ele>
        <time>2014-05-16T10:20:10.000Z</time>
      </trkpt>
      <trkpt lat="43.58077" lon="1.37405">
        <ele>280.39999389648</ele>
        <time>2014-05-16T10:20:14.000Z</time>
      </trkpt>
      <trkpt lat="43.58076" lon="1.37396">
        <ele>278.20001220703</ele>
        <time>2014-05-16T10:20:17.000Z</time>
      </trkpt>
      <trkpt lat="43.58074" lon="1.37388">
        <ele>276.79998779297</ele>
        <time>2014-05-16T10:20:19.000Z</time>
      </trkpt>
      <trkpt lat="43.58067" lon="1.37366">
        <ele>272.60000610352</ele>
        <time>2014-05-16T10:20:25.000Z</time>
      </trkpt>
      <trkpt lat="43.58063" lon="1.37342">
        <ele>268.60000610352</ele>
        <time>2014-05-16T10:20:31.000Z</time>
      </trkpt>
      <trkpt lat="43.58058" lon="1.37319">
        <ele>263.39999389648</ele>
        <time>2014-05-16T10:20:38.000Z</time>
      </trkpt>
      <trkpt lat="43.58055" lon="1.37307">
        <ele>261.39999389648</ele>
        <time>2014-05-16T10:20:41.000Z</time>
      </trkpt>
      <trkpt lat="43.58054" lon="1.373">
        <ele>260</ele>
        <time>2014-05-16T10:20:43.000Z</time>
      </trkpt>
      <trkpt lat="43.5805" lon="1.37285">
        <ele>257.39999389648</ele>
        <time>2014-05-16T10:20:47.000Z</time>
      </trkpt>
      <trkpt lat="43.58043" lon="1.37259">
        <ele>253.60000610352</ele>
        <time>2014-05-16T10:20:53.000Z</time>
      </trkpt>
      <trkpt lat="43.58042" lon="1.37255">
        <ele>253</ele>
        <time>2014-05-16T10:20:54.000Z</time>
      </trkpt>
      <trkpt lat="43.58036" lon="1.37231">
        <ele>249.60000610352</ele>
        <time>2014-05-16T10:21:00.000Z</time>
      </trkpt>
      <trkpt lat="43.58035" lon="1.37227">
        <ele>249</ele>
        <time>2014-05-16T10:21:01.000Z</time>
      </trkpt>
      <trkpt lat="43.58031" lon="1.37206">
        <ele>246.60000610352</ele>
        <time>2014-05-16T10:21:06.000Z</time>
      </trkpt>
      <trkpt lat="43.58024" lon="1.37181">
        <ele>243.80000305176</ele>
        <time>2014-05-16T10:21:12.000Z</time>
      </trkpt>
      <trkpt lat="43.58019" lon="1.37157">
        <ele>240.80000305176</ele>
        <time>2014-05-16T10:21:18.000Z</time>
      </trkpt>
      <trkpt lat="43.58018" lon="1.37147">
        <ele>239.80000305176</ele>
        <time>2014-05-16T10:21:20.000Z</time>
      </trkpt>
      <trkpt lat="43.58017" lon="1.37124">
        <ele>237.60000610352</ele>
        <time>2014-05-16T10:21:25.000Z</time>
      </trkpt>
      <trkpt lat="43.58016" lon="1.37094">
        <ele>235</ele>
        <time>2014-05-16T10:21:31.000Z</time>
      </trkpt>
      <trkpt lat="43.58016" lon="1.3707">
        <ele>233.39999389648</ele>
        <time>2014-05-16T10:21:36.000Z</time>
      </trkpt>
      <trkpt lat="43.58016" lon="1.37049">
        <ele>232</ele>
        <time>2014-05-16T10:21:41.000Z</time>
      </trkpt>
      <trkpt lat="43.5802" lon="1.37024">
        <ele>230.80000305176</ele>
        <time>2014-05-16T10:21:46.000Z</time>
      </trkpt>
      <trkpt lat="43.58023" lon="1.37005">
        <ele>230</ele>
        <time>2014-05-16T10:21:50.000Z</time>
      </trkpt>
      <trkpt lat="43.58018" lon="1.36987">
        <ele>229.19999694824</ele>
        <time>2014-05-16T10:21:54.000Z</time>
      </trkpt>
      <trkpt lat="43.58017" lon="1.36963">
        <ele>228.19999694824</ele>
        <time>2014-05-16T10:21:59.000Z</time>
      </trkpt>
      <trkpt lat="43.58017" lon="1.36937">
        <ele>227.19999694824</ele>
        <time>2014-05-16T10:22:04.000Z</time>
      </trkpt>
      <trkpt lat="43.58017" lon="1.36932">
        <ele>227.19999694824</ele>
        <time>2014-05-16T10:22:05.000Z</time>
      </trkpt>
      <trkpt lat="43.58016" lon="1.36913">
        <ele>226.39999389648</ele>
        <time>2014-05-16T10:22:09.000Z</time>
      </trkpt>
      <trkpt lat="43.58013" lon="1.36888">
        <ele>225.39999389648</ele>
        <time>2014-05-16T10:22:14.000Z</time>
      </trkpt>
      <trkpt lat="43.58012" lon="1.36883">
        <ele>225.39999389648</ele>
        <time>2014-05-16T10:22:15.000Z</time>
      </trkpt>
      <trkpt lat="43.58007" lon="1.3686">
        <ele>224.60000610352</ele>
        <time>2014-05-16T10:22:20.000Z</time>
      </trkpt>
      <trkpt lat="43.58001" lon="1.36838">
        <ele>224</ele>
        <time>2014-05-16T10:22:25.000Z</time>
      </trkpt>
      <trkpt lat="43.57994" lon="1.36818">
        <ele>223.39999389648</ele>
        <time>2014-05-16T10:22:30.000Z</time>
      </trkpt>
      <trkpt lat="43.57987" lon="1.36798">
        <ele>222.80000305176</ele>
        <time>2014-05-16T10:22:35.000Z</time>
      </trkpt>
      <trkpt lat="43.5798" lon="1.36776">
        <ele>222</ele>
        <time>2014-05-16T10:22:41.000Z</time>
      </trkpt>
      <trkpt lat="43.57976" lon="1.36761">
        <ele>221.19999694824</ele>
        <time>2014-05-16T10:22:45.000Z</time>
      </trkpt>
      <trkpt lat="43.57967" lon="1.36738">
        <ele>220.19999694824</ele>
        <time>2014-05-16T10:22:51.000Z</time>
      </trkpt>
      <trkpt lat="43.57962" lon="1.36716">
        <ele>219.39999389648</ele>
        <time>2014-05-16T10:22:56.000Z</time>
      </trkpt>
      <trkpt lat="43.57968" lon="1.36698">
        <ele>218.60000610352</ele>
        <time>2014-05-16T10:23:00.000Z</time>
      </trkpt>
      <trkpt lat="43.57971" lon="1.36676">
        <ele>217.39999389648</ele>
        <time>2014-05-16T10:23:05.000Z</time>
      </trkpt>
      <trkpt lat="43.57969" lon="1.36658">
        <ele>216.60000610352</ele>
        <time>2014-05-16T10:23:09.000Z</time>
      </trkpt>
      <trkpt lat="43.57971" lon="1.36654">
        <ele>216.19999694824</ele>
        <time>2014-05-16T10:23:10.000Z</time>
      </trkpt>
      <trkpt lat="43.57984" lon="1.36639">
        <ele>215</ele>
        <time>2014-05-16T10:23:15.000Z</time>
      </trkpt>
      <trkpt lat="43.57999" lon="1.36619">
        <ele>213.60000610352</ele>
        <time>2014-05-16T10:23:21.000Z</time>
      </trkpt>
      <trkpt lat="43.58014" lon="1.366">
        <ele>212.19999694824</ele>
        <time>2014-05-16T10:23:27.000Z</time>
      </trkpt>
      <trkpt lat="43.58021" lon="1.3659">
        <ele>211.60000610352</ele>
        <time>2014-05-16T10:23:30.000Z</time>
      </trkpt>
      <trkpt lat="43.58033" lon="1.36576">
        <ele>210.60000610352</ele>
        <time>2014-05-16T10:23:35.000Z</time>
      </trkpt>
      <trkpt lat="43.58048" lon="1.36559">
        <ele>209.19999694824</ele>
        <time>2014-05-16T10:23:41.000Z</time>
      </trkpt>
      <trkpt lat="43.58062" lon="1.36541">
        <ele>208</ele>
        <time>2014-05-16T10:23:47.000Z</time>
      </trkpt>
      <trkpt lat="43.58074" lon="1.36526">
        <ele>207</ele>
        <time>2014-05-16T10:23:52.000Z</time>
      </trkpt>
      <trkpt lat="43.58084" lon="1.36508">
        <ele>205.80000305176</ele>
        <time>2014-05-16T10:23:58.000Z</time>
      </trkpt>
      <trkpt lat="43.58094" lon="1.36498">
        <ele>205</ele>
        <time>2014-05-16T10:24:02.000Z</time>
      </trkpt>
      <trkpt lat="43.5811" lon="1.36485">
        <ele>204</ele>
        <time>2014-05-16T10:24:08.000Z</time>
      </trkpt>
      <trkpt lat="43.58123" lon="1.36474">
        <ele>203.19999694824</ele>
        <time>2014-05-16T10:24:13.000Z</time>
      </trkpt>
      <trkpt lat="43.58141" lon="1.36464">
        <ele>202.19999694824</ele>
        <time>2014-05-16T10:24:19.000Z</time>
      </trkpt>
      <trkpt lat="43.58156" lon="1.36455">
        <ele>201.39999389648</ele>
        <time>2014-05-16T10:24:24.000Z</time>
      </trkpt>
      <trkpt lat="43.58174" lon="1.36446">
        <ele>200.60000610352</ele>
        <time>2014-05-16T10:24:30.000Z</time>
      </trkpt>
      <trkpt lat="43.58188" lon="1.36437">
        <ele>199.80000305176</ele>
        <time>2014-05-16T10:24:35.000Z</time>
      </trkpt>
      <trkpt lat="43.58206" lon="1.36427">
        <ele>199</ele>
        <time>2014-05-16T10:24:41.000Z</time>
      </trkpt>
      <trkpt lat="43.58222" lon="1.36419">
        <ele>198.60000610352</ele>
        <time>2014-05-16T10:24:46.000Z</time>
      </trkpt>
      <trkpt lat="43.5824" lon="1.3641">
        <ele>197.80000305176</ele>
        <time>2014-05-16T10:24:52.000Z</time>
      </trkpt>
      <trkpt lat="43.58257" lon="1.36397">
        <ele>197.19999694824</ele>
        <time>2014-05-16T10:24:58.000Z</time>
      </trkpt>
      <trkpt lat="43.58275" lon="1.36386">
        <ele>196.60000610352</ele>
        <time>2014-05-16T10:25:04.000Z</time>
      </trkpt>
      <trkpt lat="43.58278" lon="1.36384">
        <ele>196.60000610352</ele>
        <time>2014-05-16T10:25:05.000Z</time>
      </trkpt>
      <trkpt lat="43.58292" lon="1.36375">
        <ele>196</ele>
        <time>2014-05-16T10:25:10.000Z</time>
      </trkpt>
      <trkpt lat="43.5831" lon="1.36365">
        <ele>195.60000610352</ele>
        <time>2014-05-16T10:25:16.000Z</time>
      </trkpt>
      <trkpt lat="43.58328" lon="1.36357">
        <ele>195.19999694824</ele>
        <time>2014-05-16T10:25:22.000Z</time>
      </trkpt>
      <trkpt lat="43.58343" lon="1.36352">
        <ele>194.80000305176</ele>
        <time>2014-05-16T10:25:27.000Z</time>
      </trkpt>
      <trkpt lat="43.58354" lon="1.36351">
        <ele>194.39999389648</ele>
        <time>2014-05-16T10:25:31.000Z</time>
      </trkpt>
      <trkpt lat="43.58357" lon="1.36352">
        <ele>194.39999389648</ele>
        <time>2014-05-16T10:25:32.000Z</time>
      </trkpt>
      <trkpt lat="43.58366" lon="1.36355">
        <ele>194</ele>
        <time>2014-05-16T10:25:35.000Z</time>
      </trkpt>
      <trkpt lat="43.58373" lon="1.36356">
        <ele>193.80000305176</ele>
        <time>2014-05-16T10:25:37.000Z</time>
      </trkpt>
      <trkpt lat="43.58392" lon="1.3635">
        <ele>193.19999694824</ele>
        <time>2014-05-16T10:25:43.000Z</time>
      </trkpt>
      <trkpt lat="43.58408" lon="1.36343">
        <ele>192.80000305176</ele>
        <time>2014-05-16T10:25:48.000Z</time>
      </trkpt>
      <trkpt lat="43.58424" lon="1.36331">
        <ele>192.19999694824</ele>
        <time>2014-05-16T10:25:54.000Z</time>
      </trkpt>
      <trkpt lat="43.58438" lon="1.36327">
        <ele>192</ele>
        <time>2014-05-16T10:25:58.000Z</time>
      </trkpt>
      <trkpt lat="43.5845" lon="1.36322">
        <ele>191.60000610352</ele>
        <time>2014-05-16T10:26:02.000Z</time>
      </trkpt>
      <trkpt lat="43.58454" lon="1.36316">
        <ele>191.39999389648</ele>
        <time>2014-05-16T10:26:04.000Z</time>
      </trkpt>
      <trkpt lat="43.58455" lon="1.36312">
        <ele>191.19999694824</ele>
        <time>2014-05-16T10:26:05.000Z</time>
      </trkpt>
      <trkpt lat="43.58449" lon="1.36299">
        <ele>191</ele>
        <time>2014-05-16T10:26:08.000Z</time>
      </trkpt>
      <trkpt lat="43.58447" lon="1.36295">
        <ele>191</ele>
        <time>2014-05-16T10:26:09.000Z</time>
      </trkpt>
      <trkpt lat="43.58449" lon="1.36282">
        <ele>190.80000305176</ele>
        <time>2014-05-16T10:26:12.000Z</time>
      </trkpt>
      <trkpt lat="43.58452" lon="1.36279">
        <ele>190.60000610352</ele>
        <time>2014-05-16T10:26:13.000Z</time>
      </trkpt>
      <trkpt lat="43.58473" lon="1.36272">
        <ele>190.19999694824</ele>
        <time>2014-05-16T10:26:18.000Z</time>
      </trkpt>
      <trkpt lat="43.58491" lon="1.36266">
        <ele>189.80000305176</ele>
        <time>2014-05-16T10:26:23.000Z</time>
      </trkpt>
      <trkpt lat="43.58494" lon="1.36264">
        <ele>189.80000305176</ele>
        <time>2014-05-16T10:26:24.000Z</time>
      </trkpt>
      <trkpt lat="43.58514" lon="1.36257">
        <ele>189.19999694824</ele>
        <time>2014-05-16T10:26:30.000Z</time>
      </trkpt>
      <trkpt lat="43.58517" lon="1.36256">
        <ele>189</ele>
        <time>2014-05-16T10:26:31.000Z</time>
      </trkpt>
      <trkpt lat="43.58532" lon="1.36248">
        <ele>188.60000610352</ele>
        <time>2014-05-16T10:26:36.000Z</time>
      </trkpt>
      <trkpt lat="43.58551" lon="1.36241">
        <ele>188</ele>
        <time>2014-05-16T10:26:42.000Z</time>
      </trkpt>
      <trkpt lat="43.58566" lon="1.36233">
        <ele>187.60000610352</ele>
        <time>2014-05-16T10:26:47.000Z</time>
      </trkpt>
      <trkpt lat="43.58581" lon="1.36225">
        <ele>187.39999389648</ele>
        <time>2014-05-16T10:26:52.000Z</time>
      </trkpt>
      <trkpt lat="43.58601" lon="1.36217">
        <ele>186.80000305176</ele>
        <time>2014-05-16T10:26:58.000Z</time>
      </trkpt>
      <trkpt lat="43.58618" lon="1.36214">
        <ele>186.39999389648</ele>
        <time>2014-05-16T10:27:03.000Z</time>
      </trkpt>
      <trkpt lat="43.58634" lon="1.36229">
        <ele>186.19999694824</ele>
        <time>2014-05-16T10:27:09.000Z</time>
      </trkpt>
      <trkpt lat="43.5865" lon="1.36247">
        <ele>185.80000305176</ele>
        <time>2014-05-16T10:27:15.000Z</time>
      </trkpt>
      <trkpt lat="43.58664" lon="1.36266">
        <ele>185.39999389648</ele>
        <time>2014-05-16T10:27:21.000Z</time>
      </trkpt>
      <trkpt lat="43.58676" lon="1.36282">
        <ele>185.19999694824</ele>
        <time>2014-05-16T10:27:26.000Z</time>
      </trkpt>
      <trkpt lat="43.5869" lon="1.36296">
        <ele>184.80000305176</ele>
        <time>2014-05-16T10:27:31.000Z</time>
      </trkpt>
      <trkpt lat="43.58707" lon="1.36311">
        <ele>184.39999389648</ele>
        <time>2014-05-16T10:27:36.000Z</time>
      </trkpt>
      <trkpt lat="43.58723" lon="1.36328">
        <ele>183.60000610352</ele>
        <time>2014-05-16T10:27:41.000Z</time>
      </trkpt>
      <trkpt lat="43.58726" lon="1.36331">
        <ele>183.39999389648</ele>
        <time>2014-05-16T10:27:42.000Z</time>
      </trkpt>
      <trkpt lat="43.58741" lon="1.36351">
        <ele>182.19999694824</ele>
        <time>2014-05-16T10:27:48.000Z</time>
      </trkpt>
      <trkpt lat="43.58743" lon="1.36355">
        <ele>182</ele>
        <time>2014-05-16T10:27:49.000Z</time>
      </trkpt>
      <trkpt lat="43.58758" lon="1.36373">
        <ele>180.80000305176</ele>
        <time>2014-05-16T10:27:55.000Z</time>
      </trkpt>
      <trkpt lat="43.58773" lon="1.36388">
        <ele>179.60000610352</ele>
        <time>2014-05-16T10:28:01.000Z</time>
      </trkpt>
      <trkpt lat="43.58787" lon="1.36402">
        <ele>178.19999694824</ele>
        <time>2014-05-16T10:28:07.000Z</time>
      </trkpt>
      <trkpt lat="43.58802" lon="1.36418">
        <ele>176.80000305176</ele>
        <time>2014-05-16T10:28:13.000Z</time>
      </trkpt>
      <trkpt lat="43.58813" lon="1.36439">
        <ele>175.39999389648</ele>
        <time>2014-05-16T10:28:19.000Z</time>
      </trkpt>
      <trkpt lat="43.58818" lon="1.3646">
        <ele>174.19999694824</ele>
        <time>2014-05-16T10:28:25.000Z</time>
      </trkpt>
      <trkpt lat="43.58827" lon="1.3648">
        <ele>172.80000305176</ele>
        <time>2014-05-16T10:28:31.000Z</time>
      </trkpt>
      <trkpt lat="43.58837" lon="1.36494">
        <ele>172</ele>
        <time>2014-05-16T10:28:35.000Z</time>
      </trkpt>
      <trkpt lat="43.58847" lon="1.3652">
        <ele>170.80000305176</ele>
        <time>2014-05-16T10:28:41.000Z</time>
      </trkpt>
      <trkpt lat="43.58853" lon="1.36539">
        <ele>170.19999694824</ele>
        <time>2014-05-16T10:28:45.000Z</time>
      </trkpt>
      <trkpt lat="43.5886" lon="1.36565">
        <ele>169</ele>
        <time>2014-05-16T10:28:51.000Z</time>
      </trkpt>
      <trkpt lat="43.5887" lon="1.36582">
        <ele>168</ele>
        <time>2014-05-16T10:28:57.000Z</time>
      </trkpt>
      <trkpt lat="43.58882" lon="1.366">
        <ele>167</ele>
        <time>2014-05-16T10:29:03.000Z</time>
      </trkpt>
      <trkpt lat="43.5889" lon="1.36621">
        <ele>166.19999694824</ele>
        <time>2014-05-16T10:29:08.000Z</time>
      </trkpt>
      <trkpt lat="43.58899" lon="1.36635">
        <ele>165.60000610352</ele>
        <time>2014-05-16T10:29:12.000Z</time>
      </trkpt>
      <trkpt lat="43.58908" lon="1.3665">
        <ele>165</ele>
        <time>2014-05-16T10:29:17.000Z</time>
      </trkpt>
      <trkpt lat="43.58917" lon="1.36663">
        <ele>164.60000610352</ele>
        <time>2014-05-16T10:29:21.000Z</time>
      </trkpt>
      <trkpt lat="43.58927" lon="1.36674">
        <ele>164</ele>
        <time>2014-05-16T10:29:25.000Z</time>
      </trkpt>
      <trkpt lat="43.58943" lon="1.3669">
        <ele>163.19999694824</ele>
        <time>2014-05-16T10:29:31.000Z</time>
      </trkpt>
      <trkpt lat="43.58953" lon="1.36696">
        <ele>162.60000610352</ele>
        <time>2014-05-16T10:29:35.000Z</time>
      </trkpt>
      <trkpt lat="43.58968" lon="1.36704">
        <ele>161.80000305176</ele>
        <time>2014-05-16T10:29:40.000Z</time>
      </trkpt>
      <trkpt lat="43.58985" lon="1.36706">
        <ele>161</ele>
        <time>2014-05-16T10:29:46.000Z</time>
      </trkpt>
      <trkpt lat="43.58997" lon="1.36709">
        <ele>160.60000610352</ele>
        <time>2014-05-16T10:29:50.000Z</time>
      </trkpt>
      <trkpt lat="43.59" lon="1.36711">
        <ele>160.60000610352</ele>
        <time>2014-05-16T10:29:51.000Z</time>
      </trkpt>
      <trkpt lat="43.59009" lon="1.36723">
        <ele>159.80000305176</ele>
        <time>2014-05-16T10:29:57.000Z</time>
      </trkpt>
      <trkpt lat="43.5901" lon="1.36724">
        <ele>159.80000305176</ele>
        <time>2014-05-16T10:29:58.000Z</time>
      </trkpt>
      <trkpt lat="43.59017" lon="1.36719">
        <ele>159.39999389648</ele>
        <time>2014-05-16T10:30:01.000Z</time>
      </trkpt>
      <trkpt lat="43.59028" lon="1.36709">
        <ele>158.80000305176</ele>
        <time>2014-05-16T10:30:06.000Z</time>
      </trkpt>
      <trkpt lat="43.59041" lon="1.36695">
        <ele>158</ele>
        <time>2014-05-16T10:30:11.000Z</time>
      </trkpt>
      <trkpt lat="43.59059" lon="1.36688">
        <ele>157.19999694824</ele>
        <time>2014-05-16T10:30:16.000Z</time>
      </trkpt>
      <trkpt lat="43.59073" lon="1.36681">
        <ele>156.60000610352</ele>
        <time>2014-05-16T10:30:21.000Z</time>
      </trkpt>
      <trkpt lat="43.59088" lon="1.36673">
        <ele>156</ele>
        <time>2014-05-16T10:30:26.000Z</time>
      </trkpt>
      <trkpt lat="43.591" lon="1.36669">
        <ele>155.60000610352</ele>
        <time>2014-05-16T10:30:30.000Z</time>
      </trkpt>
      <trkpt lat="43.59113" lon="1.36663">
        <ele>155.39999389648</ele>
        <time>2014-05-16T10:30:35.000Z</time>
      </trkpt>
      <trkpt lat="43.59132" lon="1.36649">
        <ele>155</ele>
        <time>2014-05-16T10:30:41.000Z</time>
      </trkpt>
      <trkpt lat="43.59145" lon="1.36637">
        <ele>154.60000610352</ele>
        <time>2014-05-16T10:30:46.000Z</time>
      </trkpt>
      <trkpt lat="43.59165" lon="1.3663">
        <ele>154.19999694824</ele>
        <time>2014-05-16T10:30:52.000Z</time>
      </trkpt>
      <trkpt lat="43.59168" lon="1.36629">
        <ele>154.19999694824</ele>
        <time>2014-05-16T10:30:53.000Z</time>
      </trkpt>
      <trkpt lat="43.59188" lon="1.36629">
        <ele>153.80000305176</ele>
        <time>2014-05-16T10:30:59.000Z</time>
      </trkpt>
      <trkpt lat="43.59192" lon="1.36628">
        <ele>153.80000305176</ele>
        <time>2014-05-16T10:31:00.000Z</time>
      </trkpt>
      <trkpt lat="43.59205" lon="1.36632">
        <ele>153.60000610352</ele>
        <time>2014-05-16T10:31:04.000Z</time>
      </trkpt>
      <trkpt lat="43.59219" lon="1.36642">
        <ele>153.39999389648</ele>
        <time>2014-05-16T10:31:09.000Z</time>
      </trkpt>
      <trkpt lat="43.59229" lon="1.36652">
        <ele>153.19999694824</ele>
        <time>2014-05-16T10:31:13.000Z</time>
      </trkpt>
      <trkpt lat="43.59231" lon="1.36653">
        <ele>153.19999694824</ele>
        <time>2014-05-16T10:31:14.000Z</time>
      </trkpt>
      <trkpt lat="43.59238" lon="1.36656">
        <ele>153</ele>
        <time>2014-05-16T10:31:16.000Z</time>
      </trkpt>
      <trkpt lat="43.59259" lon="1.36661">
        <ele>152.60000610352</ele>
        <time>2014-05-16T10:31:22.000Z</time>
      </trkpt>
      <trkpt lat="43.59273" lon="1.36663">
        <ele>152.19999694824</ele>
        <time>2014-05-16T10:31:27.000Z</time>
      </trkpt>
      <trkpt lat="43.59292" lon="1.36663">
        <ele>152</ele>
        <time>2014-05-16T10:31:31.000Z</time>
      </trkpt>
      <trkpt lat="43.59302" lon="1.36665">
        <ele>151.60000610352</ele>
        <time>2014-05-16T10:31:35.000Z</time>
      </trkpt>
      <trkpt lat="43.59313" lon="1.36668">
        <ele>151.39999389648</ele>
        <time>2014-05-16T10:31:39.000Z</time>
      </trkpt>
      <trkpt lat="43.59331" lon="1.36674">
        <ele>151.19999694824</ele>
        <time>2014-05-16T10:31:45.000Z</time>
      </trkpt>
      <trkpt lat="43.59345" lon="1.36673">
        <ele>151</ele>
        <time>2014-05-16T10:31:49.000Z</time>
      </trkpt>
      <trkpt lat="43.59357" lon="1.36678">
        <ele>151</ele>
        <time>2014-05-16T10:31:53.000Z</time>
      </trkpt>
      <trkpt lat="43.59373" lon="1.36684">
        <ele>150.80000305176</ele>
        <time>2014-05-16T10:31:58.000Z</time>
      </trkpt>
      <trkpt lat="43.59388" lon="1.36696">
        <ele>150.39999389648</ele>
        <time>2014-05-16T10:32:04.000Z</time>
      </trkpt>
      <trkpt lat="43.59398" lon="1.36713">
        <ele>150</ele>
        <time>2014-05-16T10:32:09.000Z</time>
      </trkpt>
      <trkpt lat="43.59408" lon="1.36739">
        <ele>149.80000305176</ele>
        <time>2014-05-16T10:32:15.000Z</time>
      </trkpt>
      <trkpt lat="43.59413" lon="1.36759">
        <ele>149.60000610352</ele>
        <time>2014-05-16T10:32:20.000Z</time>
      </trkpt>
      <trkpt lat="43.5942" lon="1.36776">
        <ele>149.39999389648</ele>
        <time>2014-05-16T10:32:24.000Z</time>
      </trkpt>
      <trkpt lat="43.59428" lon="1.368">
        <ele>149.39999389648</ele>
        <time>2014-05-16T10:32:30.000Z</time>
      </trkpt>
      <trkpt lat="43.59434" lon="1.36818">
        <ele>149.19999694824</ele>
        <time>2014-05-16T10:32:35.000Z</time>
      </trkpt>
      <trkpt lat="43.5944" lon="1.36835">
        <ele>149.19999694824</ele>
        <time>2014-05-16T10:32:40.000Z</time>
      </trkpt>
      <trkpt lat="43.59453" lon="1.36853">
        <ele>149</ele>
        <time>2014-05-16T10:32:46.000Z</time>
      </trkpt>
      <trkpt lat="43.59464" lon="1.36873">
        <ele>148.80000305176</ele>
        <time>2014-05-16T10:32:52.000Z</time>
      </trkpt>
      <trkpt lat="43.59482" lon="1.36889">
        <ele>148.80000305176</ele>
        <time>2014-05-16T10:32:59.000Z</time>
      </trkpt>
      <trkpt lat="43.59498" lon="1.36903">
        <ele>148.60000610352</ele>
        <time>2014-05-16T10:33:05.000Z</time>
      </trkpt>
      <trkpt lat="43.59512" lon="1.36913">
        <ele>148.60000610352</ele>
        <time>2014-05-16T10:33:10.000Z</time>
      </trkpt>
      <trkpt lat="43.59523" lon="1.36923">
        <ele>148.60000610352</ele>
        <time>2014-05-16T10:33:14.000Z</time>
      </trkpt>
      <trkpt lat="43.59537" lon="1.36934">
        <ele>148.39999389648</ele>
        <time>2014-05-16T10:33:19.000Z</time>
      </trkpt>
      <trkpt lat="43.59549" lon="1.36947">
        <ele>148</ele>
        <time>2014-05-16T10:33:24.000Z</time>
      </trkpt>
      <trkpt lat="43.59562" lon="1.36962">
        <ele>148</ele>
        <time>2014-05-16T10:33:29.000Z</time>
      </trkpt>
      <trkpt lat="43.59575" lon="1.36975">
        <ele>148</ele>
        <time>2014-05-16T10:33:34.000Z</time>
      </trkpt>
      <trkpt lat="43.59585" lon="1.3699">
        <ele>148.19999694824</ele>
        <time>2014-05-16T10:33:39.000Z</time>
      </trkpt>
      <trkpt lat="43.59591" lon="1.37015">
        <ele>148</ele>
        <time>2014-05-16T10:33:45.000Z</time>
      </trkpt>
      <trkpt lat="43.59592" lon="1.37033">
        <ele>148.19999694824</ele>
        <time>2014-05-16T10:33:49.000Z</time>
      </trkpt>
      <trkpt lat="43.59584" lon="1.37051">
        <ele>148</ele>
        <time>2014-05-16T10:33:54.000Z</time>
      </trkpt>
      <trkpt lat="43.59575" lon="1.37066">
        <ele>148</ele>
        <time>2014-05-16T10:33:59.000Z</time>
      </trkpt>
      <trkpt lat="43.59568" lon="1.37085">
        <ele>147.60000610352</ele>
        <time>2014-05-16T10:34:04.000Z</time>
      </trkpt>
      <trkpt lat="43.59564" lon="1.37103">
        <ele>147.39999389648</ele>
        <time>2014-05-16T10:34:09.000Z</time>
      </trkpt>
      <trkpt lat="43.59562" lon="1.37127">
        <ele>147.19999694824</ele>
        <time>2014-05-16T10:34:14.000Z</time>
      </trkpt>
      <trkpt lat="43.59561" lon="1.37152">
        <ele>147</ele>
        <time>2014-05-16T10:34:19.000Z</time>
      </trkpt>
      <trkpt lat="43.59567" lon="1.37179">
        <ele>147</ele>
        <time>2014-05-16T10:34:25.000Z</time>
      </trkpt>
      <trkpt lat="43.59571" lon="1.37207">
        <ele>147.19999694824</ele>
        <time>2014-05-16T10:34:31.000Z</time>
      </trkpt>
      <trkpt lat="43.59575" lon="1.37222">
        <ele>147.39999389648</ele>
        <time>2014-05-16T10:34:34.000Z</time>
      </trkpt>
      <trkpt lat="43.59579" lon="1.37231">
        <ele>147.80000305176</ele>
        <time>2014-05-16T10:34:36.000Z</time>
      </trkpt>
      <trkpt lat="43.5959" lon="1.37254">
        <ele>148.19999694824</ele>
        <time>2014-05-16T10:34:42.000Z</time>
      </trkpt>
      <trkpt lat="43.59601" lon="1.37272">
        <ele>148.80000305176</ele>
        <time>2014-05-16T10:34:48.000Z</time>
      </trkpt>
      <trkpt lat="43.59615" lon="1.3729">
        <ele>149</ele>
        <time>2014-05-16T10:34:53.000Z</time>
      </trkpt>
      <trkpt lat="43.59618" lon="1.37295">
        <ele>149</ele>
        <time>2014-05-16T10:34:54.000Z</time>
      </trkpt>
      <trkpt lat="43.59624" lon="1.3731">
        <ele>149.39999389648</ele>
        <time>2014-05-16T10:34:58.000Z</time>
      </trkpt>
      <trkpt lat="43.5963" lon="1.37322">
        <ele>149.39999389648</ele>
        <time>2014-05-16T10:35:02.000Z</time>
      </trkpt>
      <trkpt lat="43.59643" lon="1.37344">
        <ele>149.39999389648</ele>
        <time>2014-05-16T10:35:07.000Z</time>
      </trkpt>
      <trkpt lat="43.59654" lon="1.37365">
        <ele>149.39999389648</ele>
        <time>2014-05-16T10:35:12.000Z</time>
      </trkpt>
      <trkpt lat="43.59658" lon="1.37387">
        <ele>149.19999694824</ele>
        <time>2014-05-16T10:35:17.000Z</time>
      </trkpt>
      <trkpt lat="43.59656" lon="1.37405">
        <ele>149.39999389648</ele>
        <time>2014-05-16T10:35:21.000Z</time>
      </trkpt>
      <trkpt lat="43.59655" lon="1.37409">
        <ele>149.60000610352</ele>
        <time>2014-05-16T10:35:22.000Z</time>
      </trkpt>
      <trkpt lat="43.5965" lon="1.37419">
        <ele>149.39999389648</ele>
        <time>2014-05-16T10:35:24.000Z</time>
      </trkpt>
      <trkpt lat="43.59641" lon="1.37432">
        <ele>149.19999694824</ele>
        <time>2014-05-16T10:35:27.000Z</time>
      </trkpt>
      <trkpt lat="43.59635" lon="1.37441">
        <ele>149</ele>
        <time>2014-05-16T10:35:29.000Z</time>
      </trkpt>
      <trkpt lat="43.59631" lon="1.3745">
        <ele>149</ele>
        <time>2014-05-16T10:35:31.000Z</time>
      </trkpt>
      <trkpt lat="43.59627" lon="1.37462">
        <ele>148.80000305176</ele>
        <time>2014-05-16T10:35:34.000Z</time>
      </trkpt>
      <trkpt lat="43.59621" lon="1.37479">
        <ele>148.80000305176</ele>
        <time>2014-05-16T10:35:38.000Z</time>
      </trkpt>
      <trkpt lat="43.59617" lon="1.37481">
        <ele>148.80000305176</ele>
        <time>2014-05-16T10:35:39.000Z</time>
      </trkpt>
      <trkpt lat="43.59606" lon="1.37498">
        <ele>148.39999389648</ele>
        <time>2014-05-16T10:35:44.000Z</time>
      </trkpt>
      <trkpt lat="43.59599" lon="1.37516">
        <ele>148.39999389648</ele>
        <time>2014-05-16T10:35:49.000Z</time>
      </trkpt>
      <trkpt lat="43.59596" lon="1.3754">
        <ele>148.19999694824</ele>
        <time>2014-05-16T10:35:55.000Z</time>
      </trkpt>
      <trkpt lat="43.59596" lon="1.37554">
        <ele>148.60000610352</ele>
        <time>2014-05-16T10:35:59.000Z</time>
      </trkpt>
      <trkpt lat="43.59598" lon="1.37557">
        <ele>148.80000305176</ele>
        <time>2014-05-16T10:36:00.000Z</time>
      </trkpt>
      <trkpt lat="43.59608" lon="1.37569">
        <ele>149.19999694824</ele>
        <time>2014-05-16T10:36:05.000Z</time>
      </trkpt>
      <trkpt lat="43.59625" lon="1.37586">
        <ele>149.19999694824</ele>
        <time>2014-05-16T10:36:11.000Z</time>
      </trkpt>
      <trkpt lat="43.5964" lon="1.376">
        <ele>149</ele>
        <time>2014-05-16T10:36:16.000Z</time>
      </trkpt>
      <trkpt lat="43.59655" lon="1.37617">
        <ele>148.80000305176</ele>
        <time>2014-05-16T10:36:21.000Z</time>
      </trkpt>
      <trkpt lat="43.59662" lon="1.37629">
        <ele>148.80000305176</ele>
        <time>2014-05-16T10:36:24.000Z</time>
      </trkpt>
      <trkpt lat="43.5967" lon="1.37647">
        <ele>148.60000610352</ele>
        <time>2014-05-16T10:36:29.000Z</time>
      </trkpt>
      <trkpt lat="43.5968" lon="1.37663">
        <ele>148.39999389648</ele>
        <time>2014-05-16T10:36:34.000Z</time>
      </trkpt>
      <trkpt lat="43.59692" lon="1.37672">
        <ele>148.19999694824</ele>
        <time>2014-05-16T10:36:39.000Z</time>
      </trkpt>
      <trkpt lat="43.59706" lon="1.37672">
        <ele>147.80000305176</ele>
        <time>2014-05-16T10:36:44.000Z</time>
      </trkpt>
      <trkpt lat="43.59708" lon="1.37674">
        <ele>147.60000610352</ele>
        <time>2014-05-16T10:36:45.000Z</time>
      </trkpt>
      <trkpt lat="43.59713" lon="1.37676">
        <ele>147.60000610352</ele>
        <time>2014-05-16T10:36:49.000Z</time>
      </trkpt>
      <trkpt lat="43.59718" lon="1.37676">
        <ele>147.39999389648</ele>
        <time>2014-05-16T10:36:54.000Z</time>
      </trkpt>
      <trkpt lat="43.5972" lon="1.37675">
        <ele>147.39999389648</ele>
        <time>2014-05-16T10:36:55.000Z</time>
      </trkpt>
      <trkpt lat="43.59731" lon="1.37669">
        <ele>147.39999389648</ele>
        <time>2014-05-16T10:36:59.000Z</time>
      </trkpt>
      <trkpt lat="43.59739" lon="1.37664">
        <ele>147.39999389648</ele>
        <time>2014-05-16T10:37:02.000Z</time>
      </trkpt>
      <trkpt lat="43.59742" lon="1.37657">
        <ele>147.39999389648</ele>
        <time>2014-05-16T10:37:04.000Z</time>
      </trkpt>
      <trkpt lat="43.59755" lon="1.37639">
        <ele>147</ele>
        <time>2014-05-16T10:37:09.000Z</time>
      </trkpt>
      <trkpt lat="43.59758" lon="1.37636">
        <ele>147</ele>
        <time>2014-05-16T10:37:10.000Z</time>
      </trkpt>
      <trkpt lat="43.59771" lon="1.3762">
        <ele>146.39999389648</ele>
        <time>2014-05-16T10:37:15.000Z</time>
      </trkpt>
      <trkpt lat="43.5978" lon="1.37602">
        <ele>146</ele>
        <time>2014-05-16T10:37:20.000Z</time>
      </trkpt>
      <trkpt lat="43.59794" lon="1.37595">
        <ele>145.60000610352</ele>
        <time>2014-05-16T10:37:24.000Z</time>
      </trkpt>
      <trkpt lat="43.59811" lon="1.3759">
        <ele>145</ele>
        <time>2014-05-16T10:37:29.000Z</time>
      </trkpt>
      <trkpt lat="43.59826" lon="1.37589">
        <ele>144.60000610352</ele>
        <time>2014-05-16T10:37:34.000Z</time>
      </trkpt>
      <trkpt lat="43.59838" lon="1.37597">
        <ele>144.19999694824</ele>
        <time>2014-05-16T10:37:39.000Z</time>
      </trkpt>
      <trkpt lat="43.59849" lon="1.3761">
        <ele>144</ele>
        <time>2014-05-16T10:37:44.000Z</time>
      </trkpt>
      <trkpt lat="43.59859" lon="1.3762">
        <ele>143.80000305176</ele>
        <time>2014-05-16T10:37:48.000Z</time>
      </trkpt>
      <trkpt lat="43.59876" lon="1.37633">
        <ele>143.80000305176</ele>
        <time>2014-05-16T10:37:53.000Z</time>
      </trkpt>
      <trkpt lat="43.59886" lon="1.37653">
        <ele>143.80000305176</ele>
        <time>2014-05-16T10:37:58.000Z</time>
      </trkpt>
      <trkpt lat="43.59892" lon="1.37672">
        <ele>143.80000305176</ele>
        <time>2014-05-16T10:38:02.000Z</time>
      </trkpt>
      <trkpt lat="43.59898" lon="1.37694">
        <ele>144</ele>
        <time>2014-05-16T10:38:07.000Z</time>
      </trkpt>
      <trkpt lat="43.59896" lon="1.37708">
        <ele>144</ele>
        <time>2014-05-16T10:38:11.000Z</time>
      </trkpt>
      <trkpt lat="43.59893" lon="1.37711">
        <ele>143.80000305176</ele>
        <time>2014-05-16T10:38:12.000Z</time>
      </trkpt>
      <trkpt lat="43.59887" lon="1.37716">
        <ele>143.80000305176</ele>
        <time>2014-05-16T10:38:15.000Z</time>
      </trkpt>
      <trkpt lat="43.59885" lon="1.37719">
        <ele>143.80000305176</ele>
        <time>2014-05-16T10:38:16.000Z</time>
      </trkpt>
      <trkpt lat="43.59884" lon="1.37723">
        <ele>143.80000305176</ele>
        <time>2014-05-16T10:38:17.000Z</time>
      </trkpt>
      <trkpt lat="43.59882" lon="1.37733">
        <ele>143.60000610352</ele>
        <time>2014-05-16T10:38:20.000Z</time>
      </trkpt>
      <trkpt lat="43.59881" lon="1.3774">
        <ele>143.60000610352</ele>
        <time>2014-05-16T10:38:22.000Z</time>
      </trkpt>
      <trkpt lat="43.59881" lon="1.37752">
        <ele>143.80000305176</ele>
        <time>2014-05-16T10:38:26.000Z</time>
      </trkpt>
      <trkpt lat="43.59883" lon="1.37753">
        <ele>143.80000305176</ele>
        <time>2014-05-16T10:38:27.000Z</time>
      </trkpt>
      <trkpt lat="43.59896" lon="1.37761">
        <ele>144.19999694824</ele>
        <time>2014-05-16T10:38:32.000Z</time>
      </trkpt>
      <trkpt lat="43.59914" lon="1.37769">
        <ele>144.80000305176</ele>
        <time>2014-05-16T10:38:38.000Z</time>
      </trkpt>
      <trkpt lat="43.59929" lon="1.37779">
        <ele>145.19999694824</ele>
        <time>2014-05-16T10:38:44.000Z</time>
      </trkpt>
      <trkpt lat="43.59947" lon="1.37779">
        <ele>145.19999694824</ele>
        <time>2014-05-16T10:38:50.000Z</time>
      </trkpt>
      <trkpt lat="43.59965" lon="1.37773">
        <ele>145.19999694824</ele>
        <time>2014-05-16T10:38:56.000Z</time>
      </trkpt>
      <trkpt lat="43.59981" lon="1.37767">
        <ele>145</ele>
        <time>2014-05-16T10:39:01.000Z</time>
      </trkpt>
      <trkpt lat="43.59992" lon="1.3776">
        <ele>145</ele>
        <time>2014-05-16T10:39:05.000Z</time>
      </trkpt>
      <trkpt lat="43.60005" lon="1.37752">
        <ele>144.60000610352</ele>
        <time>2014-05-16T10:39:10.000Z</time>
      </trkpt>
      <trkpt lat="43.60019" lon="1.37743">
        <ele>144.39999389648</ele>
        <time>2014-05-16T10:39:15.000Z</time>
      </trkpt>
      <trkpt lat="43.60031" lon="1.37732">
        <ele>143.80000305176</ele>
        <time>2014-05-16T10:39:20.000Z</time>
      </trkpt>
      <trkpt lat="43.60034" lon="1.37731">
        <ele>143.60000610352</ele>
        <time>2014-05-16T10:39:21.000Z</time>
      </trkpt>
      <trkpt lat="43.60046" lon="1.37723">
        <ele>143.19999694824</ele>
        <time>2014-05-16T10:39:25.000Z</time>
      </trkpt>
      <trkpt lat="43.60065" lon="1.37714">
        <ele>142.39999389648</ele>
        <time>2014-05-16T10:39:31.000Z</time>
      </trkpt>
      <trkpt lat="43.60081" lon="1.37713">
        <ele>141.80000305176</ele>
        <time>2014-05-16T10:39:36.000Z</time>
      </trkpt>
      <trkpt lat="43.60091" lon="1.37704">
        <ele>141.19999694824</ele>
        <time>2014-05-16T10:39:40.000Z</time>
      </trkpt>
      <trkpt lat="43.60098" lon="1.37686">
        <ele>140.39999389648</ele>
        <time>2014-05-16T10:39:45.000Z</time>
      </trkpt>
      <trkpt lat="43.60099" lon="1.37682">
        <ele>140.39999389648</ele>
        <time>2014-05-16T10:39:46.000Z</time>
      </trkpt>
      <trkpt lat="43.60101" lon="1.37661">
        <ele>139.80000305176</ele>
        <time>2014-05-16T10:39:51.000Z</time>
      </trkpt>
      <trkpt lat="43.60099" lon="1.37656">
        <ele>139.60000610352</ele>
        <time>2014-05-16T10:39:52.000Z</time>
      </trkpt>
      <trkpt lat="43.60093" lon="1.3764">
        <ele>139.39999389648</ele>
        <time>2014-05-16T10:39:55.000Z</time>
      </trkpt>
      <trkpt lat="43.60086" lon="1.37616">
        <ele>139</ele>
        <time>2014-05-16T10:40:00.000Z</time>
      </trkpt>
      <trkpt lat="43.60086" lon="1.37594">
        <ele>138.60000610352</ele>
        <time>2014-05-16T10:40:05.000Z</time>
      </trkpt>
      <trkpt lat="43.60088" lon="1.37591">
        <ele>138.39999389648</ele>
        <time>2014-05-16T10:40:06.000Z</time>
      </trkpt>
      <trkpt lat="43.60097" lon="1.37585">
        <ele>138</ele>
        <time>2014-05-16T10:40:09.000Z</time>
      </trkpt>
      <trkpt lat="43.60113" lon="1.37566">
        <ele>137.60000610352</ele>
        <time>2014-05-16T10:40:15.000Z</time>
      </trkpt>
      <trkpt lat="43.60115" lon="1.37562">
        <ele>137.39999389648</ele>
        <time>2014-05-16T10:40:16.000Z</time>
      </trkpt>
      <trkpt lat="43.60128" lon="1.37547">
        <ele>137</ele>
        <time>2014-05-16T10:40:21.000Z</time>
      </trkpt>
      <trkpt lat="43.60141" lon="1.37544">
        <ele>136.80000305176</ele>
        <time>2014-05-16T10:40:25.000Z</time>
      </trkpt>
      <trkpt lat="43.60154" lon="1.37554">
        <ele>136.60000610352</ele>
        <time>2014-05-16T10:40:30.000Z</time>
      </trkpt>
      <trkpt lat="43.60165" lon="1.37571">
        <ele>136.60000610352</ele>
        <time>2014-05-16T10:40:35.000Z</time>
      </trkpt>
      <trkpt lat="43.60175" lon="1.37589">
        <ele>137</ele>
        <time>2014-05-16T10:40:40.000Z</time>
      </trkpt>
      <trkpt lat="43.60183" lon="1.37609">
        <ele>137.60000610352</ele>
        <time>2014-05-16T10:40:45.000Z</time>
      </trkpt>
      <trkpt lat="43.60182" lon="1.37613">
        <ele>137.80000305176</ele>
        <time>2014-05-16T10:40:46.000Z</time>
      </trkpt>
      <trkpt lat="43.60175" lon="1.37625">
        <ele>138</ele>
        <time>2014-05-16T10:40:49.000Z</time>
      </trkpt>
      <trkpt lat="43.60171" lon="1.37639">
        <ele>138.39999389648</ele>
        <time>2014-05-16T10:40:53.000Z</time>
      </trkpt>
      <trkpt lat="43.60171" lon="1.37643">
        <ele>138.60000610352</ele>
        <time>2014-05-16T10:40:54.000Z</time>
      </trkpt>
      <trkpt lat="43.60171" lon="1.37662">
        <ele>139</ele>
        <time>2014-05-16T10:40:59.000Z</time>
      </trkpt>
      <trkpt lat="43.60174" lon="1.37683">
        <ele>139.19999694824</ele>
        <time>2014-05-16T10:41:04.000Z</time>
      </trkpt>
      <trkpt lat="43.60175" lon="1.37703">
        <ele>139.60000610352</ele>
        <time>2014-05-16T10:41:09.000Z</time>
      </trkpt>
      <trkpt lat="43.60176" lon="1.3772">
        <ele>139.80000305176</ele>
        <time>2014-05-16T10:41:13.000Z</time>
      </trkpt>
      <trkpt lat="43.6018" lon="1.37744">
        <ele>140</ele>
        <time>2014-05-16T10:41:19.000Z</time>
      </trkpt>
      <trkpt lat="43.60182" lon="1.37764">
        <ele>140.19999694824</ele>
        <time>2014-05-16T10:41:24.000Z</time>
      </trkpt>
      <trkpt lat="43.60185" lon="1.37791">
        <ele>140.39999389648</ele>
        <time>2014-05-16T10:41:30.000Z</time>
      </trkpt>
      <trkpt lat="43.60187" lon="1.37812">
        <ele>141</ele>
        <time>2014-05-16T10:41:35.000Z</time>
      </trkpt>
      <trkpt lat="43.60192" lon="1.37832">
        <ele>141.19999694824</ele>
        <time>2014-05-16T10:41:40.000Z</time>
      </trkpt>
      <trkpt lat="43.60199" lon="1.37849">
        <ele>141.80000305176</ele>
        <time>2014-05-16T10:41:45.000Z</time>
      </trkpt>
      <trkpt lat="43.60212" lon="1.37861">
        <ele>141.80000305176</ele>
        <time>2014-05-16T10:41:51.000Z</time>
      </trkpt>
      <trkpt lat="43.60229" lon="1.37864">
        <ele>142</ele>
        <time>2014-05-16T10:41:56.000Z</time>
      </trkpt>
      <trkpt lat="43.60248" lon="1.37865">
        <ele>142</ele>
        <time>2014-05-16T10:42:02.000Z</time>
      </trkpt>
      <trkpt lat="43.60267" lon="1.37864">
        <ele>142</ele>
        <time>2014-05-16T10:42:08.000Z</time>
      </trkpt>
      <trkpt lat="43.6027" lon="1.37864">
        <ele>142</ele>
        <time>2014-05-16T10:42:09.000Z</time>
      </trkpt>
      <trkpt lat="43.6029" lon="1.37863">
        <ele>142.19999694824</ele>
        <time>2014-05-16T10:42:16.000Z</time>
      </trkpt>
      <trkpt lat="43.60309" lon="1.37858">
        <ele>142.19999694824</ele>
        <time>2014-05-16T10:42:22.000Z</time>
      </trkpt>
      <trkpt lat="43.60324" lon="1.37854">
        <ele>142</ele>
        <time>2014-05-16T10:42:27.000Z</time>
      </trkpt>
      <trkpt lat="43.6034" lon="1.37853">
        <ele>142</ele>
        <time>2014-05-16T10:42:32.000Z</time>
      </trkpt>
      <trkpt lat="43.60353" lon="1.37863">
        <ele>141.80000305176</ele>
        <time>2014-05-16T10:42:36.000Z</time>
      </trkpt>
      <trkpt lat="43.6036" lon="1.37875">
        <ele>141.60000610352</ele>
        <time>2014-05-16T10:42:40.000Z</time>
      </trkpt>
      <trkpt lat="43.60368" lon="1.37889">
        <ele>141.39999389648</ele>
        <time>2014-05-16T10:42:44.000Z</time>
      </trkpt>
      <trkpt lat="43.6037" lon="1.37901">
        <ele>141.19999694824</ele>
        <time>2014-05-16T10:42:48.000Z</time>
      </trkpt>
      <trkpt lat="43.60383" lon="1.37918">
        <ele>141</ele>
        <time>2014-05-16T10:42:54.000Z</time>
      </trkpt>
      <trkpt lat="43.60396" lon="1.37929">
        <ele>141</ele>
        <time>2014-05-16T10:42:58.000Z</time>
      </trkpt>
      <trkpt lat="43.60412" lon="1.37939">
        <ele>140.80000305176</ele>
        <time>2014-05-16T10:43:03.000Z</time>
      </trkpt>
      <trkpt lat="43.60426" lon="1.37948">
        <ele>140.80000305176</ele>
        <time>2014-05-16T10:43:08.000Z</time>
      </trkpt>
      <trkpt lat="43.60441" lon="1.37959">
        <ele>140.60000610352</ele>
        <time>2014-05-16T10:43:13.000Z</time>
      </trkpt>
      <trkpt lat="43.60451" lon="1.37967">
        <ele>140.60000610352</ele>
        <time>2014-05-16T10:43:17.000Z</time>
      </trkpt>
      <trkpt lat="43.60454" lon="1.37966">
        <ele>140.60000610352</ele>
        <time>2014-05-16T10:43:18.000Z</time>
      </trkpt>
      <trkpt lat="43.60466" lon="1.37967">
        <ele>140.60000610352</ele>
        <time>2014-05-16T10:43:21.000Z</time>
      </trkpt>
      <trkpt lat="43.60484" lon="1.37973">
        <ele>140.39999389648</ele>
        <time>2014-05-16T10:43:26.000Z</time>
      </trkpt>
      <trkpt lat="43.60502" lon="1.37979">
        <ele>140.39999389648</ele>
        <time>2014-05-16T10:43:31.000Z</time>
      </trkpt>
      <trkpt lat="43.60514" lon="1.3799">
        <ele>140.39999389648</ele>
        <time>2014-05-16T10:43:35.000Z</time>
      </trkpt>
      <trkpt lat="43.60528" lon="1.38004">
        <ele>140.39999389648</ele>
        <time>2014-05-16T10:43:40.000Z</time>
      </trkpt>
      <trkpt lat="43.60543" lon="1.38023">
        <ele>140.39999389648</ele>
        <time>2014-05-16T10:43:45.000Z</time>
      </trkpt>
      <trkpt lat="43.60551" lon="1.38031">
        <ele>140.39999389648</ele>
        <time>2014-05-16T10:43:49.000Z</time>
      </trkpt>
      <trkpt lat="43.60561" lon="1.38036">
        <ele>140.60000610352</ele>
        <time>2014-05-16T10:43:53.000Z</time>
      </trkpt>
      <trkpt lat="43.60577" lon="1.38038">
        <ele>140.60000610352</ele>
        <time>2014-05-16T10:43:58.000Z</time>
      </trkpt>
      <trkpt lat="43.60585" lon="1.38039">
        <ele>140.60000610352</ele>
        <time>2014-05-16T10:44:01.000Z</time>
      </trkpt>
      <trkpt lat="43.60594" lon="1.38039">
        <ele>140.39999389648</ele>
        <time>2014-05-16T10:44:04.000Z</time>
      </trkpt>
      <trkpt lat="43.60614" lon="1.38038">
        <ele>140.19999694824</ele>
        <time>2014-05-16T10:44:10.000Z</time>
      </trkpt>
      <trkpt lat="43.60631" lon="1.38038">
        <ele>140.19999694824</ele>
        <time>2014-05-16T10:44:15.000Z</time>
      </trkpt>
      <trkpt lat="43.60648" lon="1.38034">
        <ele>140</ele>
        <time>2014-05-16T10:44:20.000Z</time>
      </trkpt>
      <trkpt lat="43.60659" lon="1.38023">
        <ele>139.80000305176</ele>
        <time>2014-05-16T10:44:24.000Z</time>
      </trkpt>
      <trkpt lat="43.60677" lon="1.3801">
        <ele>139.60000610352</ele>
        <time>2014-05-16T10:44:30.000Z</time>
      </trkpt>
      <trkpt lat="43.6069" lon="1.38013">
        <ele>139.19999694824</ele>
        <time>2014-05-16T10:44:34.000Z</time>
      </trkpt>
      <trkpt lat="43.60702" lon="1.38015">
        <ele>139</ele>
        <time>2014-05-16T10:44:38.000Z</time>
      </trkpt>
      <trkpt lat="43.6072" lon="1.38012">
        <ele>138.60000610352</ele>
        <time>2014-05-16T10:44:43.000Z</time>
      </trkpt>
      <trkpt lat="43.60733" lon="1.38009">
        <ele>138.39999389648</ele>
        <time>2014-05-16T10:44:47.000Z</time>
      </trkpt>
      <trkpt lat="43.60736" lon="1.38009">
        <ele>138.39999389648</ele>
        <time>2014-05-16T10:44:48.000Z</time>
      </trkpt>
      <trkpt lat="43.60753" lon="1.3801">
        <ele>138</ele>
        <time>2014-05-16T10:44:54.000Z</time>
      </trkpt>
      <trkpt lat="43.60766" lon="1.38012">
        <ele>137.80000305176</ele>
        <time>2014-05-16T10:44:59.000Z</time>
      </trkpt>
      <trkpt lat="43.60782" lon="1.38019">
        <ele>137.60000610352</ele>
        <time>2014-05-16T10:45:05.000Z</time>
      </trkpt>
      <trkpt lat="43.6079" lon="1.38034">
        <ele>137.60000610352</ele>
        <time>2014-05-16T10:45:09.000Z</time>
      </trkpt>
      <trkpt lat="43.6079" lon="1.3805">
        <ele>137.39999389648</ele>
        <time>2014-05-16T10:45:13.000Z</time>
      </trkpt>
      <trkpt lat="43.60785" lon="1.38072">
        <ele>137.39999389648</ele>
        <time>2014-05-16T10:45:18.000Z</time>
      </trkpt>
      <trkpt lat="43.60779" lon="1.38096">
        <ele>137.39999389648</ele>
        <time>2014-05-16T10:45:23.000Z</time>
      </trkpt>
      <trkpt lat="43.60773" lon="1.3812">
        <ele>137.39999389648</ele>
        <time>2014-05-16T10:45:29.000Z</time>
      </trkpt>
      <trkpt lat="43.60767" lon="1.38145">
        <ele>137.39999389648</ele>
        <time>2014-05-16T10:45:34.000Z</time>
      </trkpt>
      <trkpt lat="43.60765" lon="1.38149">
        <ele>137.39999389648</ele>
        <time>2014-05-16T10:45:35.000Z</time>
      </trkpt>
      <trkpt lat="43.6075" lon="1.38169">
        <ele>137.39999389648</ele>
        <time>2014-05-16T10:45:41.000Z</time>
      </trkpt>
      <trkpt lat="43.60738" lon="1.38183">
        <ele>137.19999694824</ele>
        <time>2014-05-16T10:45:46.000Z</time>
      </trkpt>
      <trkpt lat="43.60727" lon="1.38202">
        <ele>137</ele>
        <time>2014-05-16T10:45:52.000Z</time>
      </trkpt>
      <trkpt lat="43.60719" lon="1.38217">
        <ele>136.80000305176</ele>
        <time>2014-05-16T10:45:57.000Z</time>
      </trkpt>
      <trkpt lat="43.60712" lon="1.38235">
        <ele>136.80000305176</ele>
        <time>2014-05-16T10:46:01.000Z</time>
      </trkpt>
      <trkpt lat="43.607" lon="1.38255">
        <ele>137</ele>
        <time>2014-05-16T10:46:06.000Z</time>
      </trkpt>
      <trkpt lat="43.60693" lon="1.38274">
        <ele>137</ele>
        <time>2014-05-16T10:46:11.000Z</time>
      </trkpt>
      <trkpt lat="43.60684" lon="1.38289">
        <ele>137.19999694824</ele>
        <time>2014-05-16T10:46:15.000Z</time>
      </trkpt>
      <trkpt lat="43.60674" lon="1.38296">
        <ele>137.19999694824</ele>
        <time>2014-05-16T10:46:19.000Z</time>
      </trkpt>
      <trkpt lat="43.60666" lon="1.38317">
        <ele>137.39999389648</ele>
        <time>2014-05-16T10:46:24.000Z</time>
      </trkpt>
      <trkpt lat="43.60659" lon="1.38343">
        <ele>138.19999694824</ele>
        <time>2014-05-16T10:46:29.000Z</time>
      </trkpt>
      <trkpt lat="43.60656" lon="1.38354">
        <ele>138.39999389648</ele>
        <time>2014-05-16T10:46:33.000Z</time>
      </trkpt>
      <trkpt lat="43.6065" lon="1.38373">
        <ele>138.39999389648</ele>
        <time>2014-05-16T10:46:39.000Z</time>
      </trkpt>
      <trkpt lat="43.60645" lon="1.38393">
        <ele>138.19999694824</ele>
        <time>2014-05-16T10:46:45.000Z</time>
      </trkpt>
      <trkpt lat="43.6064" lon="1.38412">
        <ele>138</ele>
        <time>2014-05-16T10:46:50.000Z</time>
      </trkpt>
      <trkpt lat="43.60636" lon="1.38433">
        <ele>138.19999694824</ele>
        <time>2014-05-16T10:46:55.000Z</time>
      </trkpt>
      <trkpt lat="43.60633" lon="1.38459">
        <ele>138.80000305176</ele>
        <time>2014-05-16T10:47:01.000Z</time>
      </trkpt>
      <trkpt lat="43.60628" lon="1.38482">
        <ele>139.60000610352</ele>
        <time>2014-05-16T10:47:08.000Z</time>
      </trkpt>
      <trkpt lat="43.60623" lon="1.38492">
        <ele>140.19999694824</ele>
        <time>2014-05-16T10:47:13.000Z</time>
      </trkpt>
      <trkpt lat="43.60621" lon="1.38498">
        <ele>140.60000610352</ele>
        <time>2014-05-16T10:47:15.000Z</time>
      </trkpt>
      <trkpt lat="43.6062" lon="1.3851">
        <ele>141.39999389648</ele>
        <time>2014-05-16T10:47:18.000Z</time>
      </trkpt>
      <trkpt lat="43.6062" lon="1.38528">
        <ele>143</ele>
        <time>2014-05-16T10:47:23.000Z</time>
      </trkpt>
      <trkpt lat="43.60625" lon="1.38548">
        <ele>144.39999389648</ele>
        <time>2014-05-16T10:47:28.000Z</time>
      </trkpt>
      <trkpt lat="43.6063" lon="1.38562">
        <ele>146</ele>
        <time>2014-05-16T10:47:33.000Z</time>
      </trkpt>
      <trkpt lat="43.60635" lon="1.3858">
        <ele>146.80000305176</ele>
        <time>2014-05-16T10:47:38.000Z</time>
      </trkpt>
      <trkpt lat="43.60647" lon="1.38595">
        <ele>147.80000305176</ele>
        <time>2014-05-16T10:47:44.000Z</time>
      </trkpt>
      <trkpt lat="43.60658" lon="1.38602">
        <ele>148.39999389648</ele>
        <time>2014-05-16T10:47:48.000Z</time>
      </trkpt>
      <trkpt lat="43.60669" lon="1.38606">
        <ele>148.80000305176</ele>
        <time>2014-05-16T10:47:53.000Z</time>
      </trkpt>
      <trkpt lat="43.60686" lon="1.38609">
        <ele>149</ele>
        <time>2014-05-16T10:47:59.000Z</time>
      </trkpt>
      <trkpt lat="43.60704" lon="1.38608">
        <ele>149.19999694824</ele>
        <time>2014-05-16T10:48:05.000Z</time>
      </trkpt>
      <trkpt lat="43.60723" lon="1.38605">
        <ele>149.19999694824</ele>
        <time>2014-05-16T10:48:10.000Z</time>
      </trkpt>
      <trkpt lat="43.60741" lon="1.38606">
        <ele>149.19999694824</ele>
        <time>2014-05-16T10:48:16.000Z</time>
      </trkpt>
      <trkpt lat="43.60757" lon="1.3861">
        <ele>149.39999389648</ele>
        <time>2014-05-16T10:48:21.000Z</time>
      </trkpt>
      <trkpt lat="43.60772" lon="1.38615">
        <ele>149.39999389648</ele>
        <time>2014-05-16T10:48:26.000Z</time>
      </trkpt>
      <trkpt lat="43.60776" lon="1.38615">
        <ele>149.39999389648</ele>
        <time>2014-05-16T10:48:28.000Z</time>
      </trkpt>
      <trkpt lat="43.6078" lon="1.38612">
        <ele>149.39999389648</ele>
        <time>2014-05-16T10:48:30.000Z</time>
      </trkpt>
      <trkpt lat="43.60789" lon="1.38594">
        <ele>149.19999694824</ele>
        <time>2014-05-16T10:48:35.000Z</time>
      </trkpt>
      <trkpt lat="43.60793" lon="1.38586">
        <ele>149.19999694824</ele>
        <time>2014-05-16T10:48:37.000Z</time>
      </trkpt>
      <trkpt lat="43.60798" lon="1.38572">
        <ele>149</ele>
        <time>2014-05-16T10:48:40.000Z</time>
      </trkpt>
      <trkpt lat="43.60811" lon="1.38556">
        <ele>148.60000610352</ele>
        <time>2014-05-16T10:48:44.000Z</time>
      </trkpt>
      <trkpt lat="43.60818" lon="1.38546">
        <ele>148.39999389648</ele>
        <time>2014-05-16T10:48:46.000Z</time>
      </trkpt>
      <trkpt lat="43.60829" lon="1.38541">
        <ele>148</ele>
        <time>2014-05-16T10:48:49.000Z</time>
      </trkpt>
      <trkpt lat="43.60832" lon="1.38541">
        <ele>147.80000305176</ele>
        <time>2014-05-16T10:48:50.000Z</time>
      </trkpt>
      <trkpt lat="43.60835" lon="1.38541">
        <ele>147.80000305176</ele>
        <time>2014-05-16T10:48:51.000Z</time>
      </trkpt>
      <trkpt lat="43.60842" lon="1.3854">
        <ele>147.60000610352</ele>
        <time>2014-05-16T10:48:53.000Z</time>
      </trkpt>
      <trkpt lat="43.60851" lon="1.38533">
        <ele>147.19999694824</ele>
        <time>2014-05-16T10:48:58.000Z</time>
      </trkpt>
      <trkpt lat="43.60853" lon="1.38521">
        <ele>146.80000305176</ele>
        <time>2014-05-16T10:49:02.000Z</time>
      </trkpt>
      <trkpt lat="43.6085" lon="1.38501">
        <ele>146.39999389648</ele>
        <time>2014-05-16T10:49:08.000Z</time>
      </trkpt>
      <trkpt lat="43.60848" lon="1.38483">
        <ele>145.80000305176</ele>
        <time>2014-05-16T10:49:13.000Z</time>
      </trkpt>
      <trkpt lat="43.60846" lon="1.38468">
        <ele>145.39999389648</ele>
        <time>2014-05-16T10:49:17.000Z</time>
      </trkpt>
      <trkpt lat="43.60842" lon="1.38443">
        <ele>144.80000305176</ele>
        <time>2014-05-16T10:49:23.000Z</time>
      </trkpt>
      <trkpt lat="43.60841" lon="1.38439">
        <ele>144.80000305176</ele>
        <time>2014-05-16T10:49:24.000Z</time>
      </trkpt>
      <trkpt lat="43.60837" lon="1.38414">
        <ele>144.39999389648</ele>
        <time>2014-05-16T10:49:30.000Z</time>
      </trkpt>
      <trkpt lat="43.60836" lon="1.38409">
        <ele>144.19999694824</ele>
        <time>2014-05-16T10:49:31.000Z</time>
      </trkpt>
      <trkpt lat="43.60832" lon="1.38384">
        <ele>143.80000305176</ele>
        <time>2014-05-16T10:49:37.000Z</time>
      </trkpt>
      <trkpt lat="43.60828" lon="1.38363">
        <ele>143.39999389648</ele>
        <time>2014-05-16T10:49:42.000Z</time>
      </trkpt>
      <trkpt lat="43.60824" lon="1.38342">
        <ele>143</ele>
        <time>2014-05-16T10:49:47.000Z</time>
      </trkpt>
      <trkpt lat="43.60823" lon="1.38319">
        <ele>142.60000610352</ele>
        <time>2014-05-16T10:49:52.000Z</time>
      </trkpt>
      <trkpt lat="43.60821" lon="1.38299">
        <ele>142.39999389648</ele>
        <time>2014-05-16T10:49:57.000Z</time>
      </trkpt>
      <trkpt lat="43.60818" lon="1.38273">
        <ele>142</ele>
        <time>2014-05-16T10:50:03.000Z</time>
      </trkpt>
      <trkpt lat="43.60821" lon="1.3825">
        <ele>141.60000610352</ele>
        <time>2014-05-16T10:50:08.000Z</time>
      </trkpt>
      <trkpt lat="43.60826" lon="1.38234">
        <ele>141.39999389648</ele>
        <time>2014-05-16T10:50:12.000Z</time>
      </trkpt>
      <trkpt lat="43.60832" lon="1.38207">
        <ele>141.19999694824</ele>
        <time>2014-05-16T10:50:19.000Z</time>
      </trkpt>
      <trkpt lat="43.60839" lon="1.38188">
        <ele>141</ele>
        <time>2014-05-16T10:50:24.000Z</time>
      </trkpt>
      <trkpt lat="43.60851" lon="1.38167">
        <ele>140.80000305176</ele>
        <time>2014-05-16T10:50:31.000Z</time>
      </trkpt>
      <trkpt lat="43.6086" lon="1.38152">
        <ele>140.60000610352</ele>
        <time>2014-05-16T10:50:36.000Z</time>
      </trkpt>
      <trkpt lat="43.60867" lon="1.38136">
        <ele>140.60000610352</ele>
        <time>2014-05-16T10:50:40.000Z</time>
      </trkpt>
      <trkpt lat="43.60877" lon="1.38119">
        <ele>140.39999389648</ele>
        <time>2014-05-16T10:50:45.000Z</time>
      </trkpt>
      <trkpt lat="43.60885" lon="1.38101">
        <ele>140.39999389648</ele>
        <time>2014-05-16T10:50:50.000Z</time>
      </trkpt>
      <trkpt lat="43.60893" lon="1.38079">
        <ele>140.19999694824</ele>
        <time>2014-05-16T10:50:56.000Z</time>
      </trkpt>
      <trkpt lat="43.60897" lon="1.38061">
        <ele>140.19999694824</ele>
        <time>2014-05-16T10:51:00.000Z</time>
      </trkpt>
      <trkpt lat="43.60897" lon="1.3804">
        <ele>140.19999694824</ele>
        <time>2014-05-16T10:51:05.000Z</time>
      </trkpt>
      <trkpt lat="43.60893" lon="1.38019">
        <ele>140.19999694824</ele>
        <time>2014-05-16T10:51:10.000Z</time>
      </trkpt>
      <trkpt lat="43.60887" lon="1.38003">
        <ele>140.60000610352</ele>
        <time>2014-05-16T10:51:15.000Z</time>
      </trkpt>
      <trkpt lat="43.60883" lon="1.37988">
        <ele>141.39999389648</ele>
        <time>2014-05-16T10:51:19.000Z</time>
      </trkpt>
      <trkpt lat="43.60881" lon="1.37984">
        <ele>141.80000305176</ele>
        <time>2014-05-16T10:51:20.000Z</time>
      </trkpt>
      <trkpt lat="43.60872" lon="1.37967">
        <ele>143.39999389648</ele>
        <time>2014-05-16T10:51:26.000Z</time>
      </trkpt>
      <trkpt lat="43.60866" lon="1.37955">
        <ele>144.39999389648</ele>
        <time>2014-05-16T10:51:30.000Z</time>
      </trkpt>
      <trkpt lat="43.60861" lon="1.37942">
        <ele>145</ele>
        <time>2014-05-16T10:51:34.000Z</time>
      </trkpt>
      <trkpt lat="43.60852" lon="1.37922">
        <ele>147.19999694824</ele>
        <time>2014-05-16T10:51:39.000Z</time>
      </trkpt>
      <trkpt lat="43.60848" lon="1.37896">
        <ele>150.19999694824</ele>
        <time>2014-05-16T10:51:44.000Z</time>
      </trkpt>
      <trkpt lat="43.60843" lon="1.37872">
        <ele>153</ele>
        <time>2014-05-16T10:51:50.000Z</time>
      </trkpt>
      <trkpt lat="43.60836" lon="1.37854">
        <ele>154.39999389648</ele>
        <time>2014-05-16T10:51:55.000Z</time>
      </trkpt>
      <trkpt lat="43.60826" lon="1.37846">
        <ele>154.80000305176</ele>
        <time>2014-05-16T10:51:59.000Z</time>
      </trkpt>
      <trkpt lat="43.60812" lon="1.37836">
        <ele>154.60000610352</ele>
        <time>2014-05-16T10:52:05.000Z</time>
      </trkpt>
      <trkpt lat="43.60799" lon="1.3783">
        <ele>154.19999694824</ele>
        <time>2014-05-16T10:52:10.000Z</time>
      </trkpt>
      <trkpt lat="43.60787" lon="1.37823">
        <ele>153.60000610352</ele>
        <time>2014-05-16T10:52:14.000Z</time>
      </trkpt>
      <trkpt lat="43.60772" lon="1.37814">
        <ele>152.60000610352</ele>
        <time>2014-05-16T10:52:19.000Z</time>
      </trkpt>
      <trkpt lat="43.60755" lon="1.378">
        <ele>152</ele>
        <time>2014-05-16T10:52:24.000Z</time>
      </trkpt>
      <trkpt lat="43.60737" lon="1.37785">
        <ele>151.39999389648</ele>
        <time>2014-05-16T10:52:30.000Z</time>
      </trkpt>
      <trkpt lat="43.60727" lon="1.37775">
        <ele>151</ele>
        <time>2014-05-16T10:52:34.000Z</time>
      </trkpt>
      <trkpt lat="43.60714" lon="1.37764">
        <ele>150.60000610352</ele>
        <time>2014-05-16T10:52:38.000Z</time>
      </trkpt>
      <trkpt lat="43.60697" lon="1.37753">
        <ele>150.19999694824</ele>
        <time>2014-05-16T10:52:43.000Z</time>
      </trkpt>
      <trkpt lat="43.60695" lon="1.37751">
        <ele>150</ele>
        <time>2014-05-16T10:52:44.000Z</time>
      </trkpt>
      <trkpt lat="43.60677" lon="1.37739">
        <ele>149.39999389648</ele>
        <time>2014-05-16T10:52:49.000Z</time>
      </trkpt>
      <trkpt lat="43.60662" lon="1.37729">
        <ele>148.80000305176</ele>
        <time>2014-05-16T10:52:54.000Z</time>
      </trkpt>
      <trkpt lat="43.60648" lon="1.37722">
        <ele>148.19999694824</ele>
        <time>2014-05-16T10:52:59.000Z</time>
      </trkpt>
      <trkpt lat="43.60631" lon="1.37711">
        <ele>147.39999389648</ele>
        <time>2014-05-16T10:53:05.000Z</time>
      </trkpt>
      <trkpt lat="43.60613" lon="1.37701">
        <ele>146.80000305176</ele>
        <time>2014-05-16T10:53:11.000Z</time>
      </trkpt>
      <trkpt lat="43.60598" lon="1.37692">
        <ele>146.39999389648</ele>
        <time>2014-05-16T10:53:16.000Z</time>
      </trkpt>
      <trkpt lat="43.60583" lon="1.37683">
        <ele>146</ele>
        <time>2014-05-16T10:53:21.000Z</time>
      </trkpt>
      <trkpt lat="43.60572" lon="1.37674">
        <ele>145.80000305176</ele>
        <time>2014-05-16T10:53:26.000Z</time>
      </trkpt>
      <trkpt lat="43.6056" lon="1.37663">
        <ele>145.60000610352</ele>
        <time>2014-05-16T10:53:30.000Z</time>
      </trkpt>
      <trkpt lat="43.60542" lon="1.37651">
        <ele>145.39999389648</ele>
        <time>2014-05-16T10:53:36.000Z</time>
      </trkpt>
      <trkpt lat="43.60523" lon="1.37638">
        <ele>145.39999389648</ele>
        <time>2014-05-16T10:53:43.000Z</time>
      </trkpt>
      <trkpt lat="43.6051" lon="1.37632">
        <ele>145.60000610352</ele>
        <time>2014-05-16T10:53:48.000Z</time>
      </trkpt>
      <trkpt lat="43.60505" lon="1.37646">
        <ele>145.80000305176</ele>
        <time>2014-05-16T10:53:52.000Z</time>
      </trkpt>
      <trkpt lat="43.60498" lon="1.37666">
        <ele>146.19999694824</ele>
        <time>2014-05-16T10:53:57.000Z</time>
      </trkpt>
      <trkpt lat="43.60493" lon="1.37692">
        <ele>146.39999389648</ele>
        <time>2014-05-16T10:54:03.000Z</time>
      </trkpt>
      <trkpt lat="43.60485" lon="1.37713">
        <ele>146.39999389648</ele>
        <time>2014-05-16T10:54:08.000Z</time>
      </trkpt>
      <trkpt lat="43.60477" lon="1.37734">
        <ele>146.39999389648</ele>
        <time>2014-05-16T10:54:13.000Z</time>
      </trkpt>
      <trkpt lat="43.6047" lon="1.37754">
        <ele>146.39999389648</ele>
        <time>2014-05-16T10:54:18.000Z</time>
      </trkpt>
      <trkpt lat="43.60462" lon="1.37774">
        <ele>146.39999389648</ele>
        <time>2014-05-16T10:54:23.000Z</time>
      </trkpt>
      <trkpt lat="43.60454" lon="1.37794">
        <ele>146.19999694824</ele>
        <time>2014-05-16T10:54:28.000Z</time>
      </trkpt>
      <trkpt lat="43.60448" lon="1.37814">
        <ele>146.19999694824</ele>
        <time>2014-05-16T10:54:33.000Z</time>
      </trkpt>
      <trkpt lat="43.6044" lon="1.37834">
        <ele>146</ele>
        <time>2014-05-16T10:54:38.000Z</time>
      </trkpt>
      <trkpt lat="43.60429" lon="1.37856">
        <ele>145.80000305176</ele>
        <time>2014-05-16T10:54:44.000Z</time>
      </trkpt>
      <trkpt lat="43.60427" lon="1.37858">
        <ele>145.80000305176</ele>
        <time>2014-05-16T10:54:45.000Z</time>
      </trkpt>
      <trkpt lat="43.60423" lon="1.37859">
        <ele>145.60000610352</ele>
        <time>2014-05-16T10:54:46.000Z</time>
      </trkpt>
      <trkpt lat="43.60418" lon="1.37854">
        <ele>145.60000610352</ele>
        <time>2014-05-16T10:54:48.000Z</time>
      </trkpt>
      <trkpt lat="43.60412" lon="1.3785">
        <ele>145.60000610352</ele>
        <time>2014-05-16T10:54:50.000Z</time>
      </trkpt>
      <trkpt lat="43.60403" lon="1.37844">
        <ele>145.19999694824</ele>
        <time>2014-05-16T10:54:53.000Z</time>
      </trkpt>
      <trkpt lat="43.60387" lon="1.37828">
        <ele>145</ele>
        <time>2014-05-16T10:54:59.000Z</time>
      </trkpt>
      <trkpt lat="43.60377" lon="1.37814">
        <ele>144.39999389648</ele>
        <time>2014-05-16T10:55:04.000Z</time>
      </trkpt>
      <trkpt lat="43.60362" lon="1.37798">
        <ele>144</ele>
        <time>2014-05-16T10:55:10.000Z</time>
      </trkpt>
      <trkpt lat="43.60344" lon="1.378">
        <ele>143.39999389648</ele>
        <time>2014-05-16T10:55:15.000Z</time>
      </trkpt>
      <trkpt lat="43.60328" lon="1.37809">
        <ele>142.80000305176</ele>
        <time>2014-05-16T10:55:20.000Z</time>
      </trkpt>
      <trkpt lat="43.6031" lon="1.37817">
        <ele>142.19999694824</ele>
        <time>2014-05-16T10:55:26.000Z</time>
      </trkpt>
      <trkpt lat="43.60307" lon="1.37817">
        <ele>142</ele>
        <time>2014-05-16T10:55:27.000Z</time>
      </trkpt>
      <trkpt lat="43.60289" lon="1.37819">
        <ele>141.60000610352</ele>
        <time>2014-05-16T10:55:33.000Z</time>
      </trkpt>
      <trkpt lat="43.6027" lon="1.37822">
        <ele>141</ele>
        <time>2014-05-16T10:55:39.000Z</time>
      </trkpt>
      <trkpt lat="43.60266" lon="1.37822">
        <ele>141</ele>
        <time>2014-05-16T10:55:40.000Z</time>
      </trkpt>
      <trkpt lat="43.60247" lon="1.37826">
        <ele>140.60000610352</ele>
        <time>2014-05-16T10:55:46.000Z</time>
      </trkpt>
      <trkpt lat="43.60233" lon="1.37824">
        <ele>140.39999389648</ele>
        <time>2014-05-16T10:55:51.000Z</time>
      </trkpt>
      <trkpt lat="43.60217" lon="1.37815">
        <ele>140</ele>
        <time>2014-05-16T10:55:56.000Z</time>
      </trkpt>
      <trkpt lat="43.60212" lon="1.37802">
        <ele>139.80000305176</ele>
        <time>2014-05-16T10:56:00.000Z</time>
      </trkpt>
      <trkpt lat="43.6021" lon="1.37782">
        <ele>139.60000610352</ele>
        <time>2014-05-16T10:56:05.000Z</time>
      </trkpt>
      <trkpt lat="43.60208" lon="1.37758">
        <ele>139.19999694824</ele>
        <time>2014-05-16T10:56:11.000Z</time>
      </trkpt>
      <trkpt lat="43.60209" lon="1.37735">
        <ele>138.60000610352</ele>
        <time>2014-05-16T10:56:17.000Z</time>
      </trkpt>
      <trkpt lat="43.60206" lon="1.37712">
        <ele>138.19999694824</ele>
        <time>2014-05-16T10:56:22.000Z</time>
      </trkpt>
      <trkpt lat="43.60205" lon="1.37686">
        <ele>137.80000305176</ele>
        <time>2014-05-16T10:56:28.000Z</time>
      </trkpt>
      <trkpt lat="43.60202" lon="1.37658">
        <ele>137.60000610352</ele>
        <time>2014-05-16T10:56:34.000Z</time>
      </trkpt>
      <trkpt lat="43.60205" lon="1.37631">
        <ele>137.39999389648</ele>
        <time>2014-05-16T10:56:40.000Z</time>
      </trkpt>
      <trkpt lat="43.60206" lon="1.37626">
        <ele>137.39999389648</ele>
        <time>2014-05-16T10:56:41.000Z</time>
      </trkpt>
      <trkpt lat="43.60208" lon="1.37602">
        <ele>137.39999389648</ele>
        <time>2014-05-16T10:56:47.000Z</time>
      </trkpt>
      <trkpt lat="43.60206" lon="1.3758">
        <ele>137.39999389648</ele>
        <time>2014-05-16T10:56:52.000Z</time>
      </trkpt>
      <trkpt lat="43.602" lon="1.37561">
        <ele>137.39999389648</ele>
        <time>2014-05-16T10:56:57.000Z</time>
      </trkpt>
      <trkpt lat="43.60189" lon="1.3754">
        <ele>137.80000305176</ele>
        <time>2014-05-16T10:57:04.000Z</time>
      </trkpt>
      <trkpt lat="43.60181" lon="1.37528">
        <ele>138.19999694824</ele>
        <time>2014-05-16T10:57:09.000Z</time>
      </trkpt>
      <trkpt lat="43.60172" lon="1.37517">
        <ele>138.19999694824</ele>
        <time>2014-05-16T10:57:15.000Z</time>
      </trkpt>
      <trkpt lat="43.60165" lon="1.3751">
        <ele>138.19999694824</ele>
        <time>2014-05-16T10:57:22.000Z</time>
      </trkpt>
      <trkpt lat="43.60155" lon="1.37503">
        <ele>138</ele>
        <time>2014-05-16T10:57:27.000Z</time>
      </trkpt>
      <trkpt lat="43.60139" lon="1.37498">
        <ele>137.80000305176</ele>
        <time>2014-05-16T10:57:32.000Z</time>
      </trkpt>
      <trkpt lat="43.6012" lon="1.37498">
        <ele>137.80000305176</ele>
        <time>2014-05-16T10:57:38.000Z</time>
      </trkpt>
      <trkpt lat="43.60107" lon="1.3751">
        <ele>137.60000610352</ele>
        <time>2014-05-16T10:57:43.000Z</time>
      </trkpt>
      <trkpt lat="43.60096" lon="1.37525">
        <ele>137.60000610352</ele>
        <time>2014-05-16T10:57:48.000Z</time>
      </trkpt>
      <trkpt lat="43.60083" lon="1.37544">
        <ele>137.39999389648</ele>
        <time>2014-05-16T10:57:54.000Z</time>
      </trkpt>
      <trkpt lat="43.60071" lon="1.3756">
        <ele>137.39999389648</ele>
        <time>2014-05-16T10:57:59.000Z</time>
      </trkpt>
      <trkpt lat="43.6006" lon="1.37581">
        <ele>137.60000610352</ele>
        <time>2014-05-16T10:58:05.000Z</time>
      </trkpt>
      <trkpt lat="43.60053" lon="1.37604">
        <ele>137.80000305176</ele>
        <time>2014-05-16T10:58:11.000Z</time>
      </trkpt>
      <trkpt lat="43.60057" lon="1.37625">
        <ele>138</ele>
        <time>2014-05-16T10:58:16.000Z</time>
      </trkpt>
      <trkpt lat="43.60066" lon="1.3765">
        <ele>138.19999694824</ele>
        <time>2014-05-16T10:58:22.000Z</time>
      </trkpt>
      <trkpt lat="43.60066" lon="1.37655">
        <ele>138.19999694824</ele>
        <time>2014-05-16T10:58:23.000Z</time>
      </trkpt>
      <trkpt lat="43.60065" lon="1.37663">
        <ele>138.39999389648</ele>
        <time>2014-05-16T10:58:25.000Z</time>
      </trkpt>
      <trkpt lat="43.6006" lon="1.37669">
        <ele>138.39999389648</ele>
        <time>2014-05-16T10:58:27.000Z</time>
      </trkpt>
      <trkpt lat="43.60054" lon="1.37674">
        <ele>138.39999389648</ele>
        <time>2014-05-16T10:58:29.000Z</time>
      </trkpt>
      <trkpt lat="43.60045" lon="1.37679">
        <ele>138.39999389648</ele>
        <time>2014-05-16T10:58:32.000Z</time>
      </trkpt>
      <trkpt lat="43.60037" lon="1.37684">
        <ele>138.39999389648</ele>
        <time>2014-05-16T10:58:35.000Z</time>
      </trkpt>
      <trkpt lat="43.60031" lon="1.37688">
        <ele>138.39999389648</ele>
        <time>2014-05-16T10:58:37.000Z</time>
      </trkpt>
      <trkpt lat="43.60013" lon="1.37694">
        <ele>138.19999694824</ele>
        <time>2014-05-16T10:58:43.000Z</time>
      </trkpt>
      <trkpt lat="43.59995" lon="1.37708">
        <ele>138.39999389648</ele>
        <time>2014-05-16T10:58:49.000Z</time>
      </trkpt>
      <trkpt lat="43.59985" lon="1.37724">
        <ele>138.60000610352</ele>
        <time>2014-05-16T10:58:54.000Z</time>
      </trkpt>
      <trkpt lat="43.59971" lon="1.3774">
        <ele>139</ele>
        <time>2014-05-16T10:59:00.000Z</time>
      </trkpt>
      <trkpt lat="43.59956" lon="1.37742">
        <ele>139.19999694824</ele>
        <time>2014-05-16T10:59:05.000Z</time>
      </trkpt>
      <trkpt lat="43.59942" lon="1.37741">
        <ele>139</ele>
        <time>2014-05-16T10:59:10.000Z</time>
      </trkpt>
      <trkpt lat="43.59928" lon="1.37732">
        <ele>139</ele>
        <time>2014-05-16T10:59:15.000Z</time>
      </trkpt>
      <trkpt lat="43.59922" lon="1.37714">
        <ele>138.80000305176</ele>
        <time>2014-05-16T10:59:20.000Z</time>
      </trkpt>
      <trkpt lat="43.59919" lon="1.377">
        <ele>138.60000610352</ele>
        <time>2014-05-16T10:59:24.000Z</time>
      </trkpt>
      <trkpt lat="43.59916" lon="1.37683">
        <ele>138.60000610352</ele>
        <time>2014-05-16T10:59:28.000Z</time>
      </trkpt>
      <trkpt lat="43.5991" lon="1.37661">
        <ele>138.80000305176</ele>
        <time>2014-05-16T10:59:34.000Z</time>
      </trkpt>
      <trkpt lat="43.59905" lon="1.37638">
        <ele>138.80000305176</ele>
        <time>2014-05-16T10:59:40.000Z</time>
      </trkpt>
      <trkpt lat="43.59904" lon="1.37617">
        <ele>138.80000305176</ele>
        <time>2014-05-16T10:59:45.000Z</time>
      </trkpt>
      <trkpt lat="43.59907" lon="1.37596">
        <ele>139</ele>
        <time>2014-05-16T10:59:50.000Z</time>
      </trkpt>
      <trkpt lat="43.59912" lon="1.37571">
        <ele>139</ele>
        <time>2014-05-16T10:59:56.000Z</time>
      </trkpt>
      <trkpt lat="43.59918" lon="1.37547">
        <ele>139</ele>
        <time>2014-05-16T11:00:02.000Z</time>
      </trkpt>
      <trkpt lat="43.59919" lon="1.37543">
        <ele>139</ele>
        <time>2014-05-16T11:00:03.000Z</time>
      </trkpt>
      <trkpt lat="43.59924" lon="1.37524">
        <ele>138.80000305176</ele>
        <time>2014-05-16T11:00:08.000Z</time>
      </trkpt>
      <trkpt lat="43.59929" lon="1.37499">
        <ele>138.80000305176</ele>
        <time>2014-05-16T11:00:14.000Z</time>
      </trkpt>
      <trkpt lat="43.5993" lon="1.37495">
        <ele>138.60000610352</ele>
        <time>2014-05-16T11:00:15.000Z</time>
      </trkpt>
      <trkpt lat="43.59935" lon="1.37471">
        <ele>138.60000610352</ele>
        <time>2014-05-16T11:00:21.000Z</time>
      </trkpt>
      <trkpt lat="43.5994" lon="1.37447">
        <ele>138.60000610352</ele>
        <time>2014-05-16T11:00:27.000Z</time>
      </trkpt>
      <trkpt lat="43.59946" lon="1.3742">
        <ele>138.80000305176</ele>
        <time>2014-05-16T11:00:34.000Z</time>
      </trkpt>
      <trkpt lat="43.5995" lon="1.37399">
        <ele>139</ele>
        <time>2014-05-16T11:00:39.000Z</time>
      </trkpt>
      <trkpt lat="43.59954" lon="1.37376">
        <ele>139.39999389648</ele>
        <time>2014-05-16T11:00:45.000Z</time>
      </trkpt>
      <trkpt lat="43.59958" lon="1.37353">
        <ele>140</ele>
        <time>2014-05-16T11:00:51.000Z</time>
      </trkpt>
      <trkpt lat="43.59963" lon="1.37327">
        <ele>140.80000305176</ele>
        <time>2014-05-16T11:00:58.000Z</time>
      </trkpt>
      <trkpt lat="43.59969" lon="1.37307">
        <ele>141</ele>
        <time>2014-05-16T11:01:04.000Z</time>
      </trkpt>
      <trkpt lat="43.59976" lon="1.3729">
        <ele>141</ele>
        <time>2014-05-16T11:01:10.000Z</time>
      </trkpt>
      <trkpt lat="43.59978" lon="1.37285">
        <ele>141</ele>
        <time>2014-05-16T11:01:12.000Z</time>
      </trkpt>
      <trkpt lat="43.59974" lon="1.3728">
        <ele>141</ele>
        <time>2014-05-16T11:01:14.000Z</time>
      </trkpt>
      <trkpt lat="43.59961" lon="1.37269">
        <ele>141.19999694824</ele>
        <time>2014-05-16T11:01:20.000Z</time>
      </trkpt>
      <trkpt lat="43.59959" lon="1.37265">
        <ele>141.39999389648</ele>
        <time>2014-05-16T11:01:21.000Z</time>
      </trkpt>
      <trkpt lat="43.59953" lon="1.3726">
        <ele>141.60000610352</ele>
        <time>2014-05-16T11:01:23.000Z</time>
      </trkpt>
      <trkpt lat="43.59949" lon="1.37275">
        <ele>141.60000610352</ele>
        <time>2014-05-16T11:01:26.000Z</time>
      </trkpt>
      <trkpt lat="43.59949" lon="1.3728">
        <ele>141.80000305176</ele>
        <time>2014-05-16T11:01:27.000Z</time>
      </trkpt>
      <trkpt lat="43.59945" lon="1.37301">
        <ele>142.19999694824</ele>
        <time>2014-05-16T11:01:32.000Z</time>
      </trkpt>
      <trkpt lat="43.59938" lon="1.37327">
        <ele>142.80000305176</ele>
        <time>2014-05-16T11:01:38.000Z</time>
      </trkpt>
      <trkpt lat="43.59933" lon="1.37352">
        <ele>143.19999694824</ele>
        <time>2014-05-16T11:01:44.000Z</time>
      </trkpt>
      <trkpt lat="43.59932" lon="1.37357">
        <ele>143.39999389648</ele>
        <time>2014-05-16T11:01:45.000Z</time>
      </trkpt>
      <trkpt lat="43.59927" lon="1.37383">
        <ele>143.80000305176</ele>
        <time>2014-05-16T11:01:51.000Z</time>
      </trkpt>
      <trkpt lat="43.59921" lon="1.37409">
        <ele>144.39999389648</ele>
        <time>2014-05-16T11:01:57.000Z</time>
      </trkpt>
      <trkpt lat="43.59915" lon="1.37434">
        <ele>144.80000305176</ele>
        <time>2014-05-16T11:02:03.000Z</time>
      </trkpt>
      <trkpt lat="43.59909" lon="1.37461">
        <ele>145.19999694824</ele>
        <time>2014-05-16T11:02:09.000Z</time>
      </trkpt>
      <trkpt lat="43.59903" lon="1.37488">
        <ele>145.39999389648</ele>
        <time>2014-05-16T11:02:15.000Z</time>
      </trkpt>
      <trkpt lat="43.59899" lon="1.37506">
        <ele>145.39999389648</ele>
        <time>2014-05-16T11:02:19.000Z</time>
      </trkpt>
      <trkpt lat="43.59893" lon="1.37533">
        <ele>145.60000610352</ele>
        <time>2014-05-16T11:02:25.000Z</time>
      </trkpt>
      <trkpt lat="43.59886" lon="1.37559">
        <ele>145.80000305176</ele>
        <time>2014-05-16T11:02:31.000Z</time>
      </trkpt>
      <trkpt lat="43.59876" lon="1.37582">
        <ele>146.19999694824</ele>
        <time>2014-05-16T11:02:37.000Z</time>
      </trkpt>
      <trkpt lat="43.59873" lon="1.37584">
        <ele>146.19999694824</ele>
        <time>2014-05-16T11:02:38.000Z</time>
      </trkpt>
      <trkpt lat="43.59869" lon="1.37585">
        <ele>146.19999694824</ele>
        <time>2014-05-16T11:02:39.000Z</time>
      </trkpt>
      <trkpt lat="43.59862" lon="1.37579">
        <ele>146</ele>
        <time>2014-05-16T11:02:41.000Z</time>
      </trkpt>
      <trkpt lat="43.59854" lon="1.37569">
        <ele>146</ele>
        <time>2014-05-16T11:02:44.000Z</time>
      </trkpt>
      <trkpt lat="43.59844" lon="1.37558">
        <ele>146</ele>
        <time>2014-05-16T11:02:48.000Z</time>
      </trkpt>
      <trkpt lat="43.59831" lon="1.37552">
        <ele>145.80000305176</ele>
        <time>2014-05-16T11:02:52.000Z</time>
      </trkpt>
      <trkpt lat="43.59815" lon="1.37546">
        <ele>145.60000610352</ele>
        <time>2014-05-16T11:02:57.000Z</time>
      </trkpt>
      <trkpt lat="43.59802" lon="1.37537">
        <ele>145.60000610352</ele>
        <time>2014-05-16T11:03:02.000Z</time>
      </trkpt>
      <trkpt lat="43.59799" lon="1.37537">
        <ele>145.60000610352</ele>
        <time>2014-05-16T11:03:03.000Z</time>
      </trkpt>
      <trkpt lat="43.59791" lon="1.37538">
        <ele>145.60000610352</ele>
        <time>2014-05-16T11:03:06.000Z</time>
      </trkpt>
      <trkpt lat="43.59786" lon="1.37541">
        <ele>145.39999389648</ele>
        <time>2014-05-16T11:03:08.000Z</time>
      </trkpt>
      <trkpt lat="43.59776" lon="1.37548">
        <ele>145.19999694824</ele>
        <time>2014-05-16T11:03:11.000Z</time>
      </trkpt>
      <trkpt lat="43.59761" lon="1.37556">
        <ele>145</ele>
        <time>2014-05-16T11:03:16.000Z</time>
      </trkpt>
      <trkpt lat="43.59745" lon="1.37571">
        <ele>144.39999389648</ele>
        <time>2014-05-16T11:03:22.000Z</time>
      </trkpt>
      <trkpt lat="43.59741" lon="1.37582">
        <ele>144.39999389648</ele>
        <time>2014-05-16T11:03:24.000Z</time>
      </trkpt>
      <trkpt lat="43.59734" lon="1.376">
        <ele>144.19999694824</ele>
        <time>2014-05-16T11:03:28.000Z</time>
      </trkpt>
      <trkpt lat="43.59723" lon="1.3762">
        <ele>144.19999694824</ele>
        <time>2014-05-16T11:03:33.000Z</time>
      </trkpt>
      <trkpt lat="43.5971" lon="1.37631">
        <ele>144.39999389648</ele>
        <time>2014-05-16T11:03:38.000Z</time>
      </trkpt>
      <trkpt lat="43.59708" lon="1.37639">
        <ele>144.39999389648</ele>
        <time>2014-05-16T11:03:40.000Z</time>
      </trkpt>
      <trkpt lat="43.5971" lon="1.3765">
        <ele>144.60000610352</ele>
        <time>2014-05-16T11:03:42.000Z</time>
      </trkpt>
      <trkpt lat="43.59713" lon="1.37672">
        <ele>145.39999389648</ele>
        <time>2014-05-16T11:03:46.000Z</time>
      </trkpt>
      <trkpt lat="43.59713" lon="1.37677">
        <ele>145.60000610352</ele>
        <time>2014-05-16T11:03:47.000Z</time>
      </trkpt>
      <trkpt lat="43.5971" lon="1.37698">
        <ele>146</ele>
        <time>2014-05-16T11:03:52.000Z</time>
      </trkpt>
      <trkpt lat="43.59711" lon="1.37702">
        <ele>146.19999694824</ele>
        <time>2014-05-16T11:03:54.000Z</time>
      </trkpt>
      <trkpt lat="43.59712" lon="1.37701">
        <ele>146</ele>
        <time>2014-05-16T11:03:55.000Z</time>
      </trkpt>
      <trkpt lat="43.59719" lon="1.37687">
        <ele>146</ele>
        <time>2014-05-16T11:03:58.000Z</time>
      </trkpt>
      <trkpt lat="43.59719" lon="1.3768">
        <ele>146</ele>
        <time>2014-05-16T11:04:01.000Z</time>
      </trkpt>
      <trkpt lat="43.59717" lon="1.37679">
        <ele>146</ele>
        <time>2014-05-16T11:04:02.000Z</time>
      </trkpt>
      <trkpt lat="43.59711" lon="1.37678">
        <ele>146</ele>
        <time>2014-05-16T11:04:05.000Z</time>
      </trkpt>
      <trkpt lat="43.59708" lon="1.37677">
        <ele>145.80000305176</ele>
        <time>2014-05-16T11:04:06.000Z</time>
      </trkpt>
      <trkpt lat="43.59696" lon="1.37678">
        <ele>145.80000305176</ele>
        <time>2014-05-16T11:04:10.000Z</time>
      </trkpt>
      <trkpt lat="43.59683" lon="1.37669">
        <ele>145.60000610352</ele>
        <time>2014-05-16T11:04:15.000Z</time>
      </trkpt>
      <trkpt lat="43.59677" lon="1.3766">
        <ele>145.39999389648</ele>
        <time>2014-05-16T11:04:18.000Z</time>
      </trkpt>
      <trkpt lat="43.59672" lon="1.37653">
        <ele>145.19999694824</ele>
        <time>2014-05-16T11:04:20.000Z</time>
      </trkpt>
      <trkpt lat="43.59664" lon="1.37642">
        <ele>145</ele>
        <time>2014-05-16T11:04:24.000Z</time>
      </trkpt>
      <trkpt lat="43.59654" lon="1.37619">
        <ele>144.60000610352</ele>
        <time>2014-05-16T11:04:29.000Z</time>
      </trkpt>
      <trkpt lat="43.59642" lon="1.37602">
        <ele>144.60000610352</ele>
        <time>2014-05-16T11:04:34.000Z</time>
      </trkpt>
      <trkpt lat="43.5963" lon="1.3759">
        <ele>144.80000305176</ele>
        <time>2014-05-16T11:04:39.000Z</time>
      </trkpt>
      <trkpt lat="43.59629" lon="1.37587">
        <ele>144.80000305176</ele>
        <time>2014-05-16T11:04:40.000Z</time>
      </trkpt>
      <trkpt lat="43.59621" lon="1.37578">
        <ele>145</ele>
        <time>2014-05-16T11:04:43.000Z</time>
      </trkpt>
      <trkpt lat="43.59612" lon="1.3757">
        <ele>145</ele>
        <time>2014-05-16T11:04:47.000Z</time>
      </trkpt>
      <trkpt lat="43.59611" lon="1.37567">
        <ele>145</ele>
        <time>2014-05-16T11:04:48.000Z</time>
      </trkpt>
      <trkpt lat="43.59598" lon="1.37551">
        <ele>145.39999389648</ele>
        <time>2014-05-16T11:04:54.000Z</time>
      </trkpt>
      <trkpt lat="43.596" lon="1.37533">
        <ele>145.39999389648</ele>
        <time>2014-05-16T11:04:58.000Z</time>
      </trkpt>
      <trkpt lat="43.59598" lon="1.37505">
        <ele>145.39999389648</ele>
        <time>2014-05-16T11:05:03.000Z</time>
      </trkpt>
      <trkpt lat="43.59607" lon="1.37482">
        <ele>145.19999694824</ele>
        <time>2014-05-16T11:05:08.000Z</time>
      </trkpt>
      <trkpt lat="43.59615" lon="1.37469">
        <ele>145</ele>
        <time>2014-05-16T11:05:12.000Z</time>
      </trkpt>
      <trkpt lat="43.59622" lon="1.37452">
        <ele>144.60000610352</ele>
        <time>2014-05-16T11:05:17.000Z</time>
      </trkpt>
      <trkpt lat="43.59633" lon="1.37431">
        <ele>144.19999694824</ele>
        <time>2014-05-16T11:05:23.000Z</time>
      </trkpt>
      <trkpt lat="43.59639" lon="1.37408">
        <ele>144</ele>
        <time>2014-05-16T11:05:28.000Z</time>
      </trkpt>
      <trkpt lat="43.59641" lon="1.37393">
        <ele>143.60000610352</ele>
        <time>2014-05-16T11:05:32.000Z</time>
      </trkpt>
      <trkpt lat="43.59644" lon="1.37373">
        <ele>143.19999694824</ele>
        <time>2014-05-16T11:05:37.000Z</time>
      </trkpt>
      <trkpt lat="43.5964" lon="1.37358">
        <ele>142.80000305176</ele>
        <time>2014-05-16T11:05:41.000Z</time>
      </trkpt>
      <trkpt lat="43.59637" lon="1.3735">
        <ele>142.60000610352</ele>
        <time>2014-05-16T11:05:43.000Z</time>
      </trkpt>
      <trkpt lat="43.59631" lon="1.37335">
        <ele>142.39999389648</ele>
        <time>2014-05-16T11:05:47.000Z</time>
      </trkpt>
      <trkpt lat="43.59627" lon="1.37315">
        <ele>142.19999694824</ele>
        <time>2014-05-16T11:05:52.000Z</time>
      </trkpt>
      <trkpt lat="43.59618" lon="1.37298">
        <ele>142.19999694824</ele>
        <time>2014-05-16T11:05:57.000Z</time>
      </trkpt>
      <trkpt lat="43.59605" lon="1.3728">
        <ele>142</ele>
        <time>2014-05-16T11:06:02.000Z</time>
      </trkpt>
      <trkpt lat="43.59602" lon="1.37276">
        <ele>142</ele>
        <time>2014-05-16T11:06:03.000Z</time>
      </trkpt>
      <trkpt lat="43.5959" lon="1.37255">
        <ele>142.60000610352</ele>
        <time>2014-05-16T11:06:09.000Z</time>
      </trkpt>
      <trkpt lat="43.59583" lon="1.37236">
        <ele>143</ele>
        <time>2014-05-16T11:06:14.000Z</time>
      </trkpt>
      <trkpt lat="43.59577" lon="1.3721">
        <ele>143.19999694824</ele>
        <time>2014-05-16T11:06:20.000Z</time>
      </trkpt>
      <trkpt lat="43.59573" lon="1.37192">
        <ele>143.39999389648</ele>
        <time>2014-05-16T11:06:24.000Z</time>
      </trkpt>
      <trkpt lat="43.59566" lon="1.37166">
        <ele>143.39999389648</ele>
        <time>2014-05-16T11:06:30.000Z</time>
      </trkpt>
      <trkpt lat="43.59562" lon="1.37143">
        <ele>143.39999389648</ele>
        <time>2014-05-16T11:06:35.000Z</time>
      </trkpt>
      <trkpt lat="43.59561" lon="1.37121">
        <ele>143.19999694824</ele>
        <time>2014-05-16T11:06:40.000Z</time>
      </trkpt>
      <trkpt lat="43.59567" lon="1.37095">
        <ele>143</ele>
        <time>2014-05-16T11:06:46.000Z</time>
      </trkpt>
      <trkpt lat="43.59572" lon="1.37076">
        <ele>142.80000305176</ele>
        <time>2014-05-16T11:06:50.000Z</time>
      </trkpt>
      <trkpt lat="43.5958" lon="1.37057">
        <ele>142.60000610352</ele>
        <time>2014-05-16T11:06:55.000Z</time>
      </trkpt>
      <trkpt lat="43.59588" lon="1.37042">
        <ele>142.39999389648</ele>
        <time>2014-05-16T11:06:59.000Z</time>
      </trkpt>
      <trkpt lat="43.59593" lon="1.37022">
        <ele>142.19999694824</ele>
        <time>2014-05-16T11:07:04.000Z</time>
      </trkpt>
      <trkpt lat="43.59591" lon="1.37003">
        <ele>142</ele>
        <time>2014-05-16T11:07:09.000Z</time>
      </trkpt>
      <trkpt lat="43.59582" lon="1.36987">
        <ele>142</ele>
        <time>2014-05-16T11:07:14.000Z</time>
      </trkpt>
      <trkpt lat="43.59571" lon="1.36972">
        <ele>141.80000305176</ele>
        <time>2014-05-16T11:07:19.000Z</time>
      </trkpt>
      <trkpt lat="43.59556" lon="1.36959">
        <ele>141.60000610352</ele>
        <time>2014-05-16T11:07:24.000Z</time>
      </trkpt>
      <trkpt lat="43.5954" lon="1.36943">
        <ele>141.60000610352</ele>
        <time>2014-05-16T11:07:30.000Z</time>
      </trkpt>
      <trkpt lat="43.59537" lon="1.3694">
        <ele>141.60000610352</ele>
        <time>2014-05-16T11:07:31.000Z</time>
      </trkpt>
      <trkpt lat="43.59523" lon="1.36926">
        <ele>141.60000610352</ele>
        <time>2014-05-16T11:07:36.000Z</time>
      </trkpt>
      <trkpt lat="43.59508" lon="1.36912">
        <ele>141.80000305176</ele>
        <time>2014-05-16T11:07:42.000Z</time>
      </trkpt>
      <trkpt lat="43.59493" lon="1.36902">
        <ele>142</ele>
        <time>2014-05-16T11:07:47.000Z</time>
      </trkpt>
      <trkpt lat="43.59483" lon="1.36893">
        <ele>142</ele>
        <time>2014-05-16T11:07:51.000Z</time>
      </trkpt>
      <trkpt lat="43.59471" lon="1.3688">
        <ele>142</ele>
        <time>2014-05-16T11:07:56.000Z</time>
      </trkpt>
      <trkpt lat="43.59459" lon="1.36864">
        <ele>141.80000305176</ele>
        <time>2014-05-16T11:08:02.000Z</time>
      </trkpt>
      <trkpt lat="43.59452" lon="1.36855">
        <ele>141.80000305176</ele>
        <time>2014-05-16T11:08:05.000Z</time>
      </trkpt>
      <trkpt lat="43.59448" lon="1.36848">
        <ele>141.80000305176</ele>
        <time>2014-05-16T11:08:07.000Z</time>
      </trkpt>
      <trkpt lat="43.59435" lon="1.36829">
        <ele>142</ele>
        <time>2014-05-16T11:08:13.000Z</time>
      </trkpt>
      <trkpt lat="43.59431" lon="1.36822">
        <ele>142</ele>
        <time>2014-05-16T11:08:15.000Z</time>
      </trkpt>
      <trkpt lat="43.59426" lon="1.36801">
        <ele>142.39999389648</ele>
        <time>2014-05-16T11:08:20.000Z</time>
      </trkpt>
      <trkpt lat="43.5942" lon="1.36778">
        <ele>142.60000610352</ele>
        <time>2014-05-16T11:08:26.000Z</time>
      </trkpt>
      <trkpt lat="43.59415" lon="1.36756">
        <ele>142.60000610352</ele>
        <time>2014-05-16T11:08:32.000Z</time>
      </trkpt>
      <trkpt lat="43.59411" lon="1.36733">
        <ele>142.60000610352</ele>
        <time>2014-05-16T11:08:38.000Z</time>
      </trkpt>
      <trkpt lat="43.59404" lon="1.36715">
        <ele>142.60000610352</ele>
        <time>2014-05-16T11:08:43.000Z</time>
      </trkpt>
      <trkpt lat="43.59394" lon="1.367">
        <ele>142.39999389648</ele>
        <time>2014-05-16T11:08:48.000Z</time>
      </trkpt>
      <trkpt lat="43.59381" lon="1.36684">
        <ele>142.19999694824</ele>
        <time>2014-05-16T11:08:54.000Z</time>
      </trkpt>
      <trkpt lat="43.59366" lon="1.36679">
        <ele>142</ele>
        <time>2014-05-16T11:08:59.000Z</time>
      </trkpt>
      <trkpt lat="43.5935" lon="1.36675">
        <ele>142</ele>
        <time>2014-05-16T11:09:04.000Z</time>
      </trkpt>
      <trkpt lat="43.59332" lon="1.36674">
        <ele>142.19999694824</ele>
        <time>2014-05-16T11:09:09.000Z</time>
      </trkpt>
      <trkpt lat="43.59315" lon="1.36672">
        <ele>142.39999389648</ele>
        <time>2014-05-16T11:09:14.000Z</time>
      </trkpt>
      <trkpt lat="43.59299" lon="1.36668">
        <ele>142.80000305176</ele>
        <time>2014-05-16T11:09:19.000Z</time>
      </trkpt>
      <trkpt lat="43.59285" lon="1.36672">
        <ele>143.39999389648</ele>
        <time>2014-05-16T11:09:24.000Z</time>
      </trkpt>
      <trkpt lat="43.59267" lon="1.3667">
        <ele>144</ele>
        <time>2014-05-16T11:09:29.000Z</time>
      </trkpt>
      <trkpt lat="43.59248" lon="1.3666">
        <ele>143.80000305176</ele>
        <time>2014-05-16T11:09:35.000Z</time>
      </trkpt>
      <trkpt lat="43.59228" lon="1.36651">
        <ele>144</ele>
        <time>2014-05-16T11:09:41.000Z</time>
      </trkpt>
      <trkpt lat="43.59213" lon="1.3664">
        <ele>144.19999694824</ele>
        <time>2014-05-16T11:09:46.000Z</time>
      </trkpt>
      <trkpt lat="43.59202" lon="1.36636">
        <ele>144.39999389648</ele>
        <time>2014-05-16T11:09:50.000Z</time>
      </trkpt>
      <trkpt lat="43.59185" lon="1.36634">
        <ele>144.39999389648</ele>
        <time>2014-05-16T11:09:55.000Z</time>
      </trkpt>
      <trkpt lat="43.59166" lon="1.36635">
        <ele>144.60000610352</ele>
        <time>2014-05-16T11:10:00.000Z</time>
      </trkpt>
      <trkpt lat="43.59163" lon="1.36636">
        <ele>144.60000610352</ele>
        <time>2014-05-16T11:10:01.000Z</time>
      </trkpt>
      <trkpt lat="43.59147" lon="1.36645">
        <ele>144.80000305176</ele>
        <time>2014-05-16T11:10:06.000Z</time>
      </trkpt>
      <trkpt lat="43.59132" lon="1.3666">
        <ele>145.39999389648</ele>
        <time>2014-05-16T11:10:12.000Z</time>
      </trkpt>
      <trkpt lat="43.5913" lon="1.36663">
        <ele>145.39999389648</ele>
        <time>2014-05-16T11:10:13.000Z</time>
      </trkpt>
      <trkpt lat="43.59121" lon="1.36671">
        <ele>145.39999389648</ele>
        <time>2014-05-16T11:10:17.000Z</time>
      </trkpt>
      <trkpt lat="43.59118" lon="1.36671">
        <ele>145.19999694824</ele>
        <time>2014-05-16T11:10:18.000Z</time>
      </trkpt>
      <trkpt lat="43.59107" lon="1.36673">
        <ele>145.19999694824</ele>
        <time>2014-05-16T11:10:22.000Z</time>
      </trkpt>
      <trkpt lat="43.59104" lon="1.36673">
        <ele>145</ele>
        <time>2014-05-16T11:10:23.000Z</time>
      </trkpt>
      <trkpt lat="43.59088" lon="1.36674">
        <ele>144.60000610352</ele>
        <time>2014-05-16T11:10:29.000Z</time>
      </trkpt>
      <trkpt lat="43.59072" lon="1.36681">
        <ele>144.39999389648</ele>
        <time>2014-05-16T11:10:34.000Z</time>
      </trkpt>
      <trkpt lat="43.59057" lon="1.36684">
        <ele>144.19999694824</ele>
        <time>2014-05-16T11:10:39.000Z</time>
      </trkpt>
      <trkpt lat="43.59041" lon="1.36696">
        <ele>144.19999694824</ele>
        <time>2014-05-16T11:10:45.000Z</time>
      </trkpt>
      <trkpt lat="43.59029" lon="1.3671">
        <ele>144.60000610352</ele>
        <time>2014-05-16T11:10:51.000Z</time>
      </trkpt>
      <trkpt lat="43.59018" lon="1.36719">
        <ele>145.39999389648</ele>
        <time>2014-05-16T11:10:56.000Z</time>
      </trkpt>
      <trkpt lat="43.59015" lon="1.3672">
        <ele>145.60000610352</ele>
        <time>2014-05-16T11:10:57.000Z</time>
      </trkpt>
      <trkpt lat="43.59005" lon="1.36719">
        <ele>146</ele>
        <time>2014-05-16T11:11:00.000Z</time>
      </trkpt>
      <trkpt lat="43.58994" lon="1.36714">
        <ele>146.60000610352</ele>
        <time>2014-05-16T11:11:04.000Z</time>
      </trkpt>
      <trkpt lat="43.5898" lon="1.36711">
        <ele>147.39999389648</ele>
        <time>2014-05-16T11:11:09.000Z</time>
      </trkpt>
      <trkpt lat="43.58961" lon="1.36703">
        <ele>148</ele>
        <time>2014-05-16T11:11:15.000Z</time>
      </trkpt>
      <trkpt lat="43.58943" lon="1.36692">
        <ele>148.80000305176</ele>
        <time>2014-05-16T11:11:21.000Z</time>
      </trkpt>
      <trkpt lat="43.58929" lon="1.36682">
        <ele>149.39999389648</ele>
        <time>2014-05-16T11:11:26.000Z</time>
      </trkpt>
      <trkpt lat="43.58916" lon="1.36668">
        <ele>150.39999389648</ele>
        <time>2014-05-16T11:11:32.000Z</time>
      </trkpt>
      <trkpt lat="43.58914" lon="1.36664">
        <ele>150.39999389648</ele>
        <time>2014-05-16T11:11:33.000Z</time>
      </trkpt>
      <trkpt lat="43.58908" lon="1.36655">
        <ele>150.80000305176</ele>
        <time>2014-05-16T11:11:36.000Z</time>
      </trkpt>
      <trkpt lat="43.58903" lon="1.3665">
        <ele>150.60000610352</ele>
        <time>2014-05-16T11:11:38.000Z</time>
      </trkpt>
      <trkpt lat="43.58892" lon="1.36633">
        <ele>150.60000610352</ele>
        <time>2014-05-16T11:11:43.000Z</time>
      </trkpt>
      <trkpt lat="43.58885" lon="1.3661">
        <ele>150.39999389648</ele>
        <time>2014-05-16T11:11:49.000Z</time>
      </trkpt>
      <trkpt lat="43.58874" lon="1.36592">
        <ele>150.19999694824</ele>
        <time>2014-05-16T11:11:54.000Z</time>
      </trkpt>
      <trkpt lat="43.58859" lon="1.36577">
        <ele>150.19999694824</ele>
        <time>2014-05-16T11:11:59.000Z</time>
      </trkpt>
      <trkpt lat="43.58855" lon="1.3656">
        <ele>150</ele>
        <time>2014-05-16T11:12:03.000Z</time>
      </trkpt>
      <trkpt lat="43.58848" lon="1.36534">
        <ele>150</ele>
        <time>2014-05-16T11:12:09.000Z</time>
      </trkpt>
      <trkpt lat="43.58842" lon="1.3651">
        <ele>149.80000305176</ele>
        <time>2014-05-16T11:12:15.000Z</time>
      </trkpt>
      <trkpt lat="43.58832" lon="1.3649">
        <ele>149.60000610352</ele>
        <time>2014-05-16T11:12:21.000Z</time>
      </trkpt>
      <trkpt lat="43.58824" lon="1.36478">
        <ele>149.60000610352</ele>
        <time>2014-05-16T11:12:25.000Z</time>
      </trkpt>
      <trkpt lat="43.58822" lon="1.36476">
        <ele>149.60000610352</ele>
        <time>2014-05-16T11:12:26.000Z</time>
      </trkpt>
      <trkpt lat="43.58814" lon="1.36463">
        <ele>149.60000610352</ele>
        <time>2014-05-16T11:12:30.000Z</time>
      </trkpt>
      <trkpt lat="43.5881" lon="1.36451">
        <ele>149.60000610352</ele>
        <time>2014-05-16T11:12:33.000Z</time>
      </trkpt>
      <trkpt lat="43.58806" lon="1.36438">
        <ele>149.39999389648</ele>
        <time>2014-05-16T11:12:36.000Z</time>
      </trkpt>
      <trkpt lat="43.58793" lon="1.36418">
        <ele>149.19999694824</ele>
        <time>2014-05-16T11:12:42.000Z</time>
      </trkpt>
      <trkpt lat="43.5879" lon="1.36416">
        <ele>149.19999694824</ele>
        <time>2014-05-16T11:12:43.000Z</time>
      </trkpt>
      <trkpt lat="43.58773" lon="1.36401">
        <ele>149</ele>
        <time>2014-05-16T11:12:49.000Z</time>
      </trkpt>
      <trkpt lat="43.58768" lon="1.36396">
        <ele>149</ele>
        <time>2014-05-16T11:12:51.000Z</time>
      </trkpt>
      <trkpt lat="43.5876" lon="1.36389">
        <ele>148.80000305176</ele>
        <time>2014-05-16T11:12:54.000Z</time>
      </trkpt>
      <trkpt lat="43.58745" lon="1.36375">
        <ele>148.80000305176</ele>
        <time>2014-05-16T11:13:00.000Z</time>
      </trkpt>
      <trkpt lat="43.5873" lon="1.36359">
        <ele>148.60000610352</ele>
        <time>2014-05-16T11:13:06.000Z</time>
      </trkpt>
      <trkpt lat="43.58728" lon="1.36356">
        <ele>148.60000610352</ele>
        <time>2014-05-16T11:13:07.000Z</time>
      </trkpt>
      <trkpt lat="43.58712" lon="1.36341">
        <ele>148.39999389648</ele>
        <time>2014-05-16T11:13:13.000Z</time>
      </trkpt>
      <trkpt lat="43.58696" lon="1.36327">
        <ele>148.39999389648</ele>
        <time>2014-05-16T11:13:19.000Z</time>
      </trkpt>
      <trkpt lat="43.58693" lon="1.36325">
        <ele>148.39999389648</ele>
        <time>2014-05-16T11:13:20.000Z</time>
      </trkpt>
      <trkpt lat="43.58679" lon="1.36308">
        <ele>148.39999389648</ele>
        <time>2014-05-16T11:13:26.000Z</time>
      </trkpt>
      <trkpt lat="43.58677" lon="1.36306">
        <ele>148.39999389648</ele>
        <time>2014-05-16T11:13:27.000Z</time>
      </trkpt>
      <trkpt lat="43.58663" lon="1.36286">
        <ele>148.39999389648</ele>
        <time>2014-05-16T11:13:33.000Z</time>
      </trkpt>
      <trkpt lat="43.58652" lon="1.3627">
        <ele>148.39999389648</ele>
        <time>2014-05-16T11:13:38.000Z</time>
      </trkpt>
      <trkpt lat="43.58639" lon="1.36252">
        <ele>148.39999389648</ele>
        <time>2014-05-16T11:13:44.000Z</time>
      </trkpt>
      <trkpt lat="43.58627" lon="1.36244">
        <ele>148.60000610352</ele>
        <time>2014-05-16T11:13:48.000Z</time>
      </trkpt>
      <trkpt lat="43.58614" lon="1.36241">
        <ele>148.80000305176</ele>
        <time>2014-05-16T11:13:52.000Z</time>
      </trkpt>
      <trkpt lat="43.58602" lon="1.36248">
        <ele>148.80000305176</ele>
        <time>2014-05-16T11:13:57.000Z</time>
      </trkpt>
      <trkpt lat="43.58586" lon="1.36256">
        <ele>148.80000305176</ele>
        <time>2014-05-16T11:14:03.000Z</time>
      </trkpt>
      <trkpt lat="43.58568" lon="1.36263">
        <ele>148.60000610352</ele>
        <time>2014-05-16T11:14:09.000Z</time>
      </trkpt>
      <trkpt lat="43.58565" lon="1.36264">
        <ele>148.80000305176</ele>
        <time>2014-05-16T11:14:10.000Z</time>
      </trkpt>
      <trkpt lat="43.58549" lon="1.36272">
        <ele>148.60000610352</ele>
        <time>2014-05-16T11:14:15.000Z</time>
      </trkpt>
      <trkpt lat="43.58532" lon="1.3628">
        <ele>148.60000610352</ele>
        <time>2014-05-16T11:14:21.000Z</time>
      </trkpt>
      <trkpt lat="43.58517" lon="1.36287">
        <ele>148.39999389648</ele>
        <time>2014-05-16T11:14:26.000Z</time>
      </trkpt>
      <trkpt lat="43.58499" lon="1.36295">
        <ele>148.60000610352</ele>
        <time>2014-05-16T11:14:32.000Z</time>
      </trkpt>
      <trkpt lat="43.58479" lon="1.36301">
        <ele>148.60000610352</ele>
        <time>2014-05-16T11:14:39.000Z</time>
      </trkpt>
      <trkpt lat="43.58464" lon="1.36309">
        <ele>148.80000305176</ele>
        <time>2014-05-16T11:14:44.000Z</time>
      </trkpt>
      <trkpt lat="43.58458" lon="1.36318">
        <ele>149.19999694824</ele>
        <time>2014-05-16T11:14:47.000Z</time>
      </trkpt>
      <trkpt lat="43.58458" lon="1.36322">
        <ele>149.19999694824</ele>
        <time>2014-05-16T11:14:48.000Z</time>
      </trkpt>
      <trkpt lat="43.58464" lon="1.36345">
        <ele>150</ele>
        <time>2014-05-16T11:14:54.000Z</time>
      </trkpt>
      <trkpt lat="43.58458" lon="1.36352">
        <ele>150.19999694824</ele>
        <time>2014-05-16T11:14:57.000Z</time>
      </trkpt>
      <trkpt lat="43.58455" lon="1.36353">
        <ele>150.19999694824</ele>
        <time>2014-05-16T11:14:58.000Z</time>
      </trkpt>
      <trkpt lat="43.58437" lon="1.36357">
        <ele>151</ele>
        <time>2014-05-16T11:15:04.000Z</time>
      </trkpt>
      <trkpt lat="43.58426" lon="1.36362">
        <ele>151.39999389648</ele>
        <time>2014-05-16T11:15:08.000Z</time>
      </trkpt>
      <trkpt lat="43.58411" lon="1.3637">
        <ele>152.19999694824</ele>
        <time>2014-05-16T11:15:14.000Z</time>
      </trkpt>
      <trkpt lat="43.58397" lon="1.36377">
        <ele>152.80000305176</ele>
        <time>2014-05-16T11:15:19.000Z</time>
      </trkpt>
      <trkpt lat="43.58384" lon="1.36381">
        <ele>152.80000305176</ele>
        <time>2014-05-16T11:15:24.000Z</time>
      </trkpt>
      <trkpt lat="43.58364" lon="1.36377">
        <ele>152.80000305176</ele>
        <time>2014-05-16T11:15:31.000Z</time>
      </trkpt>
      <trkpt lat="43.58345" lon="1.36379">
        <ele>152.80000305176</ele>
        <time>2014-05-16T11:15:37.000Z</time>
      </trkpt>
      <trkpt lat="43.58327" lon="1.36386">
        <ele>152.80000305176</ele>
        <time>2014-05-16T11:15:43.000Z</time>
      </trkpt>
      <trkpt lat="43.58321" lon="1.36389">
        <ele>153</ele>
        <time>2014-05-16T11:15:45.000Z</time>
      </trkpt>
      <trkpt lat="43.58303" lon="1.364">
        <ele>153</ele>
        <time>2014-05-16T11:15:51.000Z</time>
      </trkpt>
      <trkpt lat="43.58299" lon="1.36402">
        <ele>153.19999694824</ele>
        <time>2014-05-16T11:15:52.000Z</time>
      </trkpt>
      <trkpt lat="43.58281" lon="1.36414">
        <ele>153.39999389648</ele>
        <time>2014-05-16T11:15:58.000Z</time>
      </trkpt>
      <trkpt lat="43.58278" lon="1.36416">
        <ele>153.39999389648</ele>
        <time>2014-05-16T11:15:59.000Z</time>
      </trkpt>
      <trkpt lat="43.58261" lon="1.36427">
        <ele>153.60000610352</ele>
        <time>2014-05-16T11:16:05.000Z</time>
      </trkpt>
      <trkpt lat="43.58257" lon="1.36429">
        <ele>153.80000305176</ele>
        <time>2014-05-16T11:16:06.000Z</time>
      </trkpt>
      <trkpt lat="43.5824" lon="1.3644">
        <ele>153.80000305176</ele>
        <time>2014-05-16T11:16:12.000Z</time>
      </trkpt>
      <trkpt lat="43.58224" lon="1.36448">
        <ele>154</ele>
        <time>2014-05-16T11:16:17.000Z</time>
      </trkpt>
      <trkpt lat="43.5821" lon="1.36456">
        <ele>154.19999694824</ele>
        <time>2014-05-16T11:16:22.000Z</time>
      </trkpt>
      <trkpt lat="43.58193" lon="1.36465">
        <ele>154.19999694824</ele>
        <time>2014-05-16T11:16:28.000Z</time>
      </trkpt>
      <trkpt lat="43.58187" lon="1.36468">
        <ele>154.19999694824</ele>
        <time>2014-05-16T11:16:30.000Z</time>
      </trkpt>
      <trkpt lat="43.58172" lon="1.36479">
        <ele>154.19999694824</ele>
        <time>2014-05-16T11:16:35.000Z</time>
      </trkpt>
      <trkpt lat="43.58156" lon="1.36489">
        <ele>154</ele>
        <time>2014-05-16T11:16:40.000Z</time>
      </trkpt>
      <trkpt lat="43.58139" lon="1.36499">
        <ele>154.19999694824</ele>
        <time>2014-05-16T11:16:46.000Z</time>
      </trkpt>
      <trkpt lat="43.58136" lon="1.36501">
        <ele>154.39999389648</ele>
        <time>2014-05-16T11:16:47.000Z</time>
      </trkpt>
      <trkpt lat="43.5812" lon="1.36513">
        <ele>154.39999389648</ele>
        <time>2014-05-16T11:16:53.000Z</time>
      </trkpt>
      <trkpt lat="43.58117" lon="1.36515">
        <ele>154.39999389648</ele>
        <time>2014-05-16T11:16:54.000Z</time>
      </trkpt>
      <trkpt lat="43.58104" lon="1.36524">
        <ele>154.39999389648</ele>
        <time>2014-05-16T11:16:59.000Z</time>
      </trkpt>
      <trkpt lat="43.58094" lon="1.36534">
        <ele>154.60000610352</ele>
        <time>2014-05-16T11:17:04.000Z</time>
      </trkpt>
      <trkpt lat="43.58084" lon="1.36553">
        <ele>155</ele>
        <time>2014-05-16T11:17:09.000Z</time>
      </trkpt>
      <trkpt lat="43.58069" lon="1.36572">
        <ele>155.39999389648</ele>
        <time>2014-05-16T11:17:15.000Z</time>
      </trkpt>
      <trkpt lat="43.58055" lon="1.36592">
        <ele>155.80000305176</ele>
        <time>2014-05-16T11:17:21.000Z</time>
      </trkpt>
      <trkpt lat="43.5804" lon="1.36612">
        <ele>156.19999694824</ele>
        <time>2014-05-16T11:17:27.000Z</time>
      </trkpt>
      <trkpt lat="43.58037" lon="1.36615">
        <ele>156.19999694824</ele>
        <time>2014-05-16T11:17:28.000Z</time>
      </trkpt>
      <trkpt lat="43.58025" lon="1.36631">
        <ele>156.60000610352</ele>
        <time>2014-05-16T11:17:33.000Z</time>
      </trkpt>
      <trkpt lat="43.58013" lon="1.36647">
        <ele>157</ele>
        <time>2014-05-16T11:17:38.000Z</time>
      </trkpt>
      <trkpt lat="43.58006" lon="1.36656">
        <ele>157</ele>
        <time>2014-05-16T11:17:41.000Z</time>
      </trkpt>
      <trkpt lat="43.57993" lon="1.36672">
        <ele>157</ele>
        <time>2014-05-16T11:17:47.000Z</time>
      </trkpt>
      <trkpt lat="43.57984" lon="1.3669">
        <ele>156.80000305176</ele>
        <time>2014-05-16T11:17:53.000Z</time>
      </trkpt>
      <trkpt lat="43.57985" lon="1.36694">
        <ele>156.80000305176</ele>
        <time>2014-05-16T11:17:54.000Z</time>
      </trkpt>
      <trkpt lat="43.57986" lon="1.36715">
        <ele>156.60000610352</ele>
        <time>2014-05-16T11:17:59.000Z</time>
      </trkpt>
      <trkpt lat="43.57981" lon="1.36737">
        <ele>156.60000610352</ele>
        <time>2014-05-16T11:18:04.000Z</time>
      </trkpt>
      <trkpt lat="43.57984" lon="1.36758">
        <ele>156.60000610352</ele>
        <time>2014-05-16T11:18:09.000Z</time>
      </trkpt>
      <trkpt lat="43.5799" lon="1.36777">
        <ele>156.60000610352</ele>
        <time>2014-05-16T11:18:14.000Z</time>
      </trkpt>
      <trkpt lat="43.57997" lon="1.36797">
        <ele>156.60000610352</ele>
        <time>2014-05-16T11:18:19.000Z</time>
      </trkpt>
      <trkpt lat="43.58004" lon="1.36817">
        <ele>156.39999389648</ele>
        <time>2014-05-16T11:18:24.000Z</time>
      </trkpt>
      <trkpt lat="43.58011" lon="1.36837">
        <ele>156.39999389648</ele>
        <time>2014-05-16T11:18:29.000Z</time>
      </trkpt>
      <trkpt lat="43.58019" lon="1.36858">
        <ele>156.39999389648</ele>
        <time>2014-05-16T11:18:34.000Z</time>
      </trkpt>
      <trkpt lat="43.58027" lon="1.36879">
        <ele>156.19999694824</ele>
        <time>2014-05-16T11:18:39.000Z</time>
      </trkpt>
      <trkpt lat="43.58033" lon="1.36907">
        <ele>156.19999694824</ele>
        <time>2014-05-16T11:18:45.000Z</time>
      </trkpt>
      <trkpt lat="43.58033" lon="1.36911">
        <ele>156.19999694824</ele>
        <time>2014-05-16T11:18:46.000Z</time>
      </trkpt>
      <trkpt lat="43.58036" lon="1.36934">
        <ele>156.19999694824</ele>
        <time>2014-05-16T11:18:51.000Z</time>
      </trkpt>
      <trkpt lat="43.58037" lon="1.36957">
        <ele>156.19999694824</ele>
        <time>2014-05-16T11:18:56.000Z</time>
      </trkpt>
      <trkpt lat="43.58036" lon="1.36981">
        <ele>156.19999694824</ele>
        <time>2014-05-16T11:19:02.000Z</time>
      </trkpt>
      <trkpt lat="43.58035" lon="1.37007">
        <ele>156.19999694824</ele>
        <time>2014-05-16T11:19:08.000Z</time>
      </trkpt>
      <trkpt lat="43.58036" lon="1.37017">
        <ele>156.19999694824</ele>
        <time>2014-05-16T11:19:11.000Z</time>
      </trkpt>
      <trkpt lat="43.58037" lon="1.3702">
        <ele>156.19999694824</ele>
        <time>2014-05-16T11:19:12.000Z</time>
      </trkpt>
      <trkpt lat="43.5804" lon="1.37028">
        <ele>156.19999694824</ele>
        <time>2014-05-16T11:19:14.000Z</time>
      </trkpt>
      <trkpt lat="43.58039" lon="1.37038">
        <ele>156.19999694824</ele>
        <time>2014-05-16T11:19:16.000Z</time>
      </trkpt>
      <trkpt lat="43.58035" lon="1.37053">
        <ele>156.19999694824</ele>
        <time>2014-05-16T11:19:20.000Z</time>
      </trkpt>
      <trkpt lat="43.58034" lon="1.37057">
        <ele>156.19999694824</ele>
        <time>2014-05-16T11:19:21.000Z</time>
      </trkpt>
      <trkpt lat="43.58032" lon="1.37075">
        <ele>156.60000610352</ele>
        <time>2014-05-16T11:19:25.000Z</time>
      </trkpt>
      <trkpt lat="43.58032" lon="1.37103">
        <ele>157.19999694824</ele>
        <time>2014-05-16T11:19:31.000Z</time>
      </trkpt>
      <trkpt lat="43.58033" lon="1.37129">
        <ele>157.60000610352</ele>
        <time>2014-05-16T11:19:37.000Z</time>
      </trkpt>
      <trkpt lat="43.58034" lon="1.37149">
        <ele>158.19999694824</ele>
        <time>2014-05-16T11:19:42.000Z</time>
      </trkpt>
      <trkpt lat="43.58037" lon="1.37171">
        <ele>158.80000305176</ele>
        <time>2014-05-16T11:19:47.000Z</time>
      </trkpt>
      <trkpt lat="43.5804" lon="1.37196">
        <ele>159.39999389648</ele>
        <time>2014-05-16T11:19:53.000Z</time>
      </trkpt>
      <trkpt lat="43.58046" lon="1.3722">
        <ele>159.80000305176</ele>
        <time>2014-05-16T11:19:59.000Z</time>
      </trkpt>
      <trkpt lat="43.58047" lon="1.37224">
        <ele>159.80000305176</ele>
        <time>2014-05-16T11:20:00.000Z</time>
      </trkpt>
      <trkpt lat="43.58053" lon="1.37251">
        <ele>159.60000610352</ele>
        <time>2014-05-16T11:20:07.000Z</time>
      </trkpt>
      <trkpt lat="43.58059" lon="1.37276">
        <ele>159.60000610352</ele>
        <time>2014-05-16T11:20:13.000Z</time>
      </trkpt>
      <trkpt lat="43.58059" lon="1.37281">
        <ele>159.60000610352</ele>
        <time>2014-05-16T11:20:14.000Z</time>
      </trkpt>
      <trkpt lat="43.58064" lon="1.37302">
        <ele>159.39999389648</ele>
        <time>2014-05-16T11:20:19.000Z</time>
      </trkpt>
      <trkpt lat="43.58068" lon="1.37328">
        <ele>159</ele>
        <time>2014-05-16T11:20:25.000Z</time>
      </trkpt>
      <trkpt lat="43.58073" lon="1.37354">
        <ele>158.80000305176</ele>
        <time>2014-05-16T11:20:31.000Z</time>
      </trkpt>
      <trkpt lat="43.5808" lon="1.37378">
        <ele>158.39999389648</ele>
        <time>2014-05-16T11:20:36.000Z</time>
      </trkpt>
      <trkpt lat="43.58086" lon="1.37405">
        <ele>158.19999694824</ele>
        <time>2014-05-16T11:20:42.000Z</time>
      </trkpt>
      <trkpt lat="43.58091" lon="1.37427">
        <ele>158</ele>
        <time>2014-05-16T11:20:47.000Z</time>
      </trkpt>
      <trkpt lat="43.58097" lon="1.37449">
        <ele>157.80000305176</ele>
        <time>2014-05-16T11:20:52.000Z</time>
      </trkpt>
      <trkpt lat="43.58105" lon="1.37461">
        <ele>157.60000610352</ele>
        <time>2014-05-16T11:20:56.000Z</time>
      </trkpt>
      <trkpt lat="43.58119" lon="1.37471">
        <ele>157.39999389648</ele>
        <time>2014-05-16T11:21:00.000Z</time>
      </trkpt>
      <trkpt lat="43.58126" lon="1.37486">
        <ele>157.39999389648</ele>
        <time>2014-05-16T11:21:04.000Z</time>
      </trkpt>
      <trkpt lat="43.58128" lon="1.37489">
        <ele>157.39999389648</ele>
        <time>2014-05-16T11:21:05.000Z</time>
      </trkpt>
      <trkpt lat="43.58129" lon="1.37503">
        <ele>157.19999694824</ele>
        <time>2014-05-16T11:21:08.000Z</time>
      </trkpt>
      <trkpt lat="43.58122" lon="1.37517">
        <ele>157.19999694824</ele>
        <time>2014-05-16T11:21:12.000Z</time>
      </trkpt>
      <trkpt lat="43.58107" lon="1.37529">
        <ele>157.19999694824</ele>
        <time>2014-05-16T11:21:17.000Z</time>
      </trkpt>
      <trkpt lat="43.581" lon="1.37544">
        <ele>157</ele>
        <time>2014-05-16T11:21:21.000Z</time>
      </trkpt>
      <trkpt lat="43.58095" lon="1.37571">
        <ele>157</ele>
        <time>2014-05-16T11:21:27.000Z</time>
      </trkpt>
      <trkpt lat="43.58089" lon="1.37597">
        <ele>157</ele>
        <time>2014-05-16T11:21:33.000Z</time>
      </trkpt>
      <trkpt lat="43.58087" lon="1.37605">
        <ele>157</ele>
        <time>2014-05-16T11:21:35.000Z</time>
      </trkpt>
      <trkpt lat="43.58083" lon="1.37626">
        <ele>157</ele>
        <time>2014-05-16T11:21:40.000Z</time>
      </trkpt>
      <trkpt lat="43.58078" lon="1.37651">
        <ele>157</ele>
        <time>2014-05-16T11:21:46.000Z</time>
      </trkpt>
      <trkpt lat="43.58071" lon="1.37675">
        <ele>157.19999694824</ele>
        <time>2014-05-16T11:21:52.000Z</time>
      </trkpt>
      <trkpt lat="43.58064" lon="1.37693">
        <ele>157.60000610352</ele>
        <time>2014-05-16T11:21:57.000Z</time>
      </trkpt>
      <trkpt lat="43.58055" lon="1.37715">
        <ele>158</ele>
        <time>2014-05-16T11:22:03.000Z</time>
      </trkpt>
      <trkpt lat="43.58057" lon="1.37731">
        <ele>158</ele>
        <time>2014-05-16T11:22:07.000Z</time>
      </trkpt>
      <trkpt lat="43.58064" lon="1.37756">
        <ele>158.19999694824</ele>
        <time>2014-05-16T11:22:13.000Z</time>
      </trkpt>
      <trkpt lat="43.58065" lon="1.3776">
        <ele>158.19999694824</ele>
        <time>2014-05-16T11:22:14.000Z</time>
      </trkpt>
      <trkpt lat="43.58072" lon="1.37779">
        <ele>158.19999694824</ele>
        <time>2014-05-16T11:22:19.000Z</time>
      </trkpt>
      <trkpt lat="43.58074" lon="1.37784">
        <ele>158.19999694824</ele>
        <time>2014-05-16T11:22:20.000Z</time>
      </trkpt>
      <trkpt lat="43.58081" lon="1.37807">
        <ele>158</ele>
        <time>2014-05-16T11:22:26.000Z</time>
      </trkpt>
      <trkpt lat="43.5809" lon="1.37831">
        <ele>158</ele>
        <time>2014-05-16T11:22:32.000Z</time>
      </trkpt>
      <trkpt lat="43.58091" lon="1.37835">
        <ele>158</ele>
        <time>2014-05-16T11:22:33.000Z</time>
      </trkpt>
      <trkpt lat="43.58099" lon="1.37859">
        <ele>158</ele>
        <time>2014-05-16T11:22:39.000Z</time>
      </trkpt>
      <trkpt lat="43.58107" lon="1.37879">
        <ele>158.19999694824</ele>
        <time>2014-05-16T11:22:44.000Z</time>
      </trkpt>
      <trkpt lat="43.58114" lon="1.379">
        <ele>158.39999389648</ele>
        <time>2014-05-16T11:22:49.000Z</time>
      </trkpt>
      <trkpt lat="43.58123" lon="1.3792">
        <ele>158.60000610352</ele>
        <time>2014-05-16T11:22:54.000Z</time>
      </trkpt>
      <trkpt lat="43.58132" lon="1.37941">
        <ele>158.60000610352</ele>
        <time>2014-05-16T11:22:59.000Z</time>
      </trkpt>
      <trkpt lat="43.58139" lon="1.37962">
        <ele>158.80000305176</ele>
        <time>2014-05-16T11:23:04.000Z</time>
      </trkpt>
      <trkpt lat="43.58136" lon="1.37975">
        <ele>158.80000305176</ele>
        <time>2014-05-16T11:23:07.000Z</time>
      </trkpt>
      <trkpt lat="43.58133" lon="1.37977">
        <ele>158.80000305176</ele>
        <time>2014-05-16T11:23:08.000Z</time>
      </trkpt>
      <trkpt lat="43.58113" lon="1.37987">
        <ele>158.60000610352</ele>
        <time>2014-05-16T11:23:14.000Z</time>
      </trkpt>
      <trkpt lat="43.58097" lon="1.37998">
        <ele>158.60000610352</ele>
        <time>2014-05-16T11:23:19.000Z</time>
      </trkpt>
      <trkpt lat="43.58079" lon="1.38008">
        <ele>158.80000305176</ele>
        <time>2014-05-16T11:23:25.000Z</time>
      </trkpt>
      <trkpt lat="43.58065" lon="1.38005">
        <ele>158.60000610352</ele>
        <time>2014-05-16T11:23:29.000Z</time>
      </trkpt>
      <trkpt lat="43.58048" lon="1.37997">
        <ele>158.60000610352</ele>
        <time>2014-05-16T11:23:34.000Z</time>
      </trkpt>
      <trkpt lat="43.58029" lon="1.3799">
        <ele>158.39999389648</ele>
        <time>2014-05-16T11:23:40.000Z</time>
      </trkpt>
      <trkpt lat="43.58013" lon="1.37982">
        <ele>158.19999694824</ele>
        <time>2014-05-16T11:23:45.000Z</time>
      </trkpt>
      <trkpt lat="43.57994" lon="1.37973">
        <ele>158</ele>
        <time>2014-05-16T11:23:51.000Z</time>
      </trkpt>
      <trkpt lat="43.57974" lon="1.37965">
        <ele>158</ele>
        <time>2014-05-16T11:23:57.000Z</time>
      </trkpt>
      <trkpt lat="43.57971" lon="1.37963">
        <ele>158</ele>
        <time>2014-05-16T11:23:58.000Z</time>
      </trkpt>
      <trkpt lat="43.57956" lon="1.3796">
        <ele>158.19999694824</ele>
        <time>2014-05-16T11:24:03.000Z</time>
      </trkpt>
      <trkpt lat="43.57945" lon="1.37965">
        <ele>158</ele>
        <time>2014-05-16T11:24:07.000Z</time>
      </trkpt>
      <trkpt lat="43.57928" lon="1.37979">
        <ele>158.39999389648</ele>
        <time>2014-05-16T11:24:13.000Z</time>
      </trkpt>
      <trkpt lat="43.57919" lon="1.37991">
        <ele>158.60000610352</ele>
        <time>2014-05-16T11:24:17.000Z</time>
      </trkpt>
      <trkpt lat="43.57902" lon="1.38009">
        <ele>158.80000305176</ele>
        <time>2014-05-16T11:24:23.000Z</time>
      </trkpt>
      <trkpt lat="43.57892" lon="1.38025">
        <ele>158.80000305176</ele>
        <time>2014-05-16T11:24:28.000Z</time>
      </trkpt>
      <trkpt lat="43.57892" lon="1.38029">
        <ele>158.80000305176</ele>
        <time>2014-05-16T11:24:29.000Z</time>
      </trkpt>
      <trkpt lat="43.57897" lon="1.38041">
        <ele>158.80000305176</ele>
        <time>2014-05-16T11:24:32.000Z</time>
      </trkpt>
      <trkpt lat="43.57898" lon="1.38045">
        <ele>158.80000305176</ele>
        <time>2014-05-16T11:24:33.000Z</time>
      </trkpt>
      <trkpt lat="43.57909" lon="1.38071">
        <ele>158.80000305176</ele>
        <time>2014-05-16T11:24:39.000Z</time>
      </trkpt>
      <trkpt lat="43.57917" lon="1.38091">
        <ele>158.60000610352</ele>
        <time>2014-05-16T11:24:44.000Z</time>
      </trkpt>
      <trkpt lat="43.57928" lon="1.38117">
        <ele>158.39999389648</ele>
        <time>2014-05-16T11:24:50.000Z</time>
      </trkpt>
      <trkpt lat="43.57929" lon="1.38122">
        <ele>158.39999389648</ele>
        <time>2014-05-16T11:24:51.000Z</time>
      </trkpt>
      <trkpt lat="43.57926" lon="1.38132">
        <ele>162.39999389648</ele>
        <time>2014-05-16T11:39:32.000Z</time>
      </trkpt>
      <trkpt lat="43.57927" lon="1.38129">
        <ele>162.39999389648</ele>
        <time>2014-05-16T11:39:33.000Z</time>
      </trkpt>
      <trkpt lat="43.57926" lon="1.38113">
        <ele>162</ele>
        <time>2014-05-16T11:39:37.000Z</time>
      </trkpt>
      <trkpt lat="43.57921" lon="1.38103">
        <ele>161.80000305176</ele>
        <time>2014-05-16T11:39:40.000Z</time>
      </trkpt>
      <trkpt lat="43.57919" lon="1.381">
        <ele>161.60000610352</ele>
        <time>2014-05-16T11:39:41.000Z</time>
      </trkpt>
      <trkpt lat="43.57907" lon="1.38088">
        <ele>161.19999694824</ele>
        <time>2014-05-16T11:39:46.000Z</time>
      </trkpt>
      <trkpt lat="43.57893" lon="1.3807">
        <ele>160.60000610352</ele>
        <time>2014-05-16T11:39:52.000Z</time>
      </trkpt>
      <trkpt lat="43.57884" lon="1.38048">
        <ele>160.19999694824</ele>
        <time>2014-05-16T11:39:58.000Z</time>
      </trkpt>
      <trkpt lat="43.57883" lon="1.38045">
        <ele>160.19999694824</ele>
        <time>2014-05-16T11:39:59.000Z</time>
      </trkpt>
      <trkpt lat="43.57873" lon="1.38023">
        <ele>159.60000610352</ele>
        <time>2014-05-16T11:40:05.000Z</time>
      </trkpt>
      <trkpt lat="43.57863" lon="1.38">
        <ele>159</ele>
        <time>2014-05-16T11:40:11.000Z</time>
      </trkpt>
      <trkpt lat="43.57861" lon="1.37996">
        <ele>159</ele>
        <time>2014-05-16T11:40:12.000Z</time>
      </trkpt>
      <trkpt lat="43.57851" lon="1.37976">
        <ele>158.60000610352</ele>
        <time>2014-05-16T11:40:18.000Z</time>
      </trkpt>
      <trkpt lat="43.57843" lon="1.37958">
        <ele>158.39999389648</ele>
        <time>2014-05-16T11:40:23.000Z</time>
      </trkpt>
      <trkpt lat="43.57837" lon="1.37939">
        <ele>158.19999694824</ele>
        <time>2014-05-16T11:40:28.000Z</time>
      </trkpt>
      <trkpt lat="43.57826" lon="1.37922">
        <ele>157.80000305176</ele>
        <time>2014-05-16T11:40:33.000Z</time>
      </trkpt>
      <trkpt lat="43.57814" lon="1.37916">
        <ele>157.80000305176</ele>
        <time>2014-05-16T11:40:37.000Z</time>
      </trkpt>
      <trkpt lat="43.57799" lon="1.37917">
        <ele>157.80000305176</ele>
        <time>2014-05-16T11:40:42.000Z</time>
      </trkpt>
      <trkpt lat="43.57781" lon="1.37925">
        <ele>157.80000305176</ele>
        <time>2014-05-16T11:40:48.000Z</time>
      </trkpt>
      <trkpt lat="43.57765" lon="1.37933">
        <ele>158.19999694824</ele>
        <time>2014-05-16T11:40:54.000Z</time>
      </trkpt>
      <trkpt lat="43.57748" lon="1.37942">
        <ele>158.19999694824</ele>
        <time>2014-05-16T11:40:59.000Z</time>
      </trkpt>
      <trkpt lat="43.57734" lon="1.3795">
        <ele>158.19999694824</ele>
        <time>2014-05-16T11:41:04.000Z</time>
      </trkpt>
      <trkpt lat="43.57721" lon="1.3796">
        <ele>158</ele>
        <time>2014-05-16T11:41:09.000Z</time>
      </trkpt>
      <trkpt lat="43.57703" lon="1.37972">
        <ele>158</ele>
        <time>2014-05-16T11:41:15.000Z</time>
      </trkpt>
      <trkpt lat="43.577" lon="1.37974">
        <ele>158</ele>
        <time>2014-05-16T11:41:16.000Z</time>
      </trkpt>
      <trkpt lat="43.57683" lon="1.37986">
        <ele>157.80000305176</ele>
        <time>2014-05-16T11:41:22.000Z</time>
      </trkpt>
      <trkpt lat="43.57668" lon="1.37996">
        <ele>157.60000610352</ele>
        <time>2014-05-16T11:41:27.000Z</time>
      </trkpt>
      <trkpt lat="43.57654" lon="1.38005">
        <ele>157.60000610352</ele>
        <time>2014-05-16T11:41:32.000Z</time>
      </trkpt>
      <trkpt lat="43.57642" lon="1.38012">
        <ele>157.60000610352</ele>
        <time>2014-05-16T11:41:36.000Z</time>
      </trkpt>
      <trkpt lat="43.57637" lon="1.38017">
        <ele>157.39999389648</ele>
        <time>2014-05-16T11:41:38.000Z</time>
      </trkpt>
      <trkpt lat="43.57619" lon="1.3803">
        <ele>157.39999389648</ele>
        <time>2014-05-16T11:41:44.000Z</time>
      </trkpt>
      <trkpt lat="43.57605" lon="1.3804">
        <ele>157.39999389648</ele>
        <time>2014-05-16T11:41:49.000Z</time>
      </trkpt>
    </trkseg>
  </trk>
</gpx>